<?xml version="1.0" encoding="UTF-8" standalone="no" ?>
<gpx xmlns="http://www.topografix.com/GPX/1/1" xmlns:xsi="http://www.w3.org/2001/XMLSchema-instance" xsi:schemaLocation="http://www.topografix.com/GPX/1/1 http://www.topografix.com/GPX/1/1/gpx.xsd" version="1.1" creator="VisuGPX - https://www.visugpx.com">
  <metadata>
    <name>La Raye</name>
    <desc><![CDATA[Boucle au départ de la Baume-Cornillane par Ourche et la crête de la Raye.]]></desc>
  </metadata>
  <trk>
    <name><![CDATA[2024-02-14 16:39:18]]></name>
    <trkseg>
      <trkpt lat="44.82291" lon="5.03925">
        <ele>328.91</ele>
        <time>2024-02-14T08:31:25Z</time>
      </trkpt>
      <trkpt lat="44.82288" lon="5.03933">
        <ele>329.87</ele>
        <time>2024-02-14T08:31:36Z</time>
      </trkpt>
      <trkpt lat="44.82281" lon="5.03939">
        <ele>330.35</ele>
        <time>2024-02-14T08:31:46Z</time>
      </trkpt>
      <trkpt lat="44.82271" lon="5.03944">
        <ele>330.83</ele>
        <time>2024-02-14T08:31:56Z</time>
      </trkpt>
      <trkpt lat="44.82253" lon="5.03962">
        <ele>331.79</ele>
        <time>2024-02-14T08:32:15Z</time>
      </trkpt>
      <trkpt lat="44.82236" lon="5.03976">
        <ele>332.75</ele>
        <time>2024-02-14T08:32:32Z</time>
      </trkpt>
      <trkpt lat="44.82218" lon="5.03992">
        <ele>333.71</ele>
        <time>2024-02-14T08:32:50Z</time>
      </trkpt>
      <trkpt lat="44.82198" lon="5.04011">
        <ele>333.71</ele>
        <time>2024-02-14T08:33:09Z</time>
      </trkpt>
      <trkpt lat="44.82183" lon="5.04033">
        <ele>334.2</ele>
        <time>2024-02-14T08:33:27Z</time>
      </trkpt>
      <trkpt lat="44.82173" lon="5.04058">
        <ele>334.2</ele>
        <time>2024-02-14T08:33:46Z</time>
      </trkpt>
      <trkpt lat="44.82163" lon="5.04079">
        <ele>331.79</ele>
        <time>2024-02-14T08:34:02Z</time>
      </trkpt>
      <trkpt lat="44.82148" lon="5.04104">
        <ele>330.35</ele>
        <time>2024-02-14T08:34:20Z</time>
      </trkpt>
      <trkpt lat="44.82131" lon="5.04136">
        <ele>328.43</ele>
        <time>2024-02-14T08:34:41Z</time>
      </trkpt>
      <trkpt lat="44.82114" lon="5.04164">
        <ele>326.99</ele>
        <time>2024-02-14T08:35:00Z</time>
      </trkpt>
      <trkpt lat="44.82094" lon="5.04182">
        <ele>325.06</ele>
        <time>2024-02-14T08:35:18Z</time>
      </trkpt>
      <trkpt lat="44.82073" lon="5.04196">
        <ele>323.62</ele>
        <time>2024-02-14T08:35:36Z</time>
      </trkpt>
      <trkpt lat="44.82053" lon="5.04214">
        <ele>321.7</ele>
        <time>2024-02-14T08:35:57Z</time>
      </trkpt>
      <trkpt lat="44.82034" lon="5.04234">
        <ele>320.26</ele>
        <time>2024-02-14T08:36:15Z</time>
      </trkpt>
      <trkpt lat="44.8202" lon="5.04254">
        <ele>319.3</ele>
        <time>2024-02-14T08:36:32Z</time>
      </trkpt>
      <trkpt lat="44.82009" lon="5.04276">
        <ele>318.33</ele>
        <time>2024-02-14T08:36:48Z</time>
      </trkpt>
      <trkpt lat="44.82009" lon="5.04291">
        <ele>319.3</ele>
        <time>2024-02-14T08:36:57Z</time>
      </trkpt>
      <trkpt lat="44.82008" lon="5.04296">
        <ele>319.78</ele>
        <time>2024-02-14T08:37:00Z</time>
      </trkpt>
      <trkpt lat="44.82014" lon="5.04326">
        <ele>321.7</ele>
        <time>2024-02-14T08:37:17Z</time>
      </trkpt>
      <trkpt lat="44.82021" lon="5.04346">
        <ele>323.14</ele>
        <time>2024-02-14T08:37:30Z</time>
      </trkpt>
      <trkpt lat="44.82029" lon="5.04366">
        <ele>325.06</ele>
        <time>2024-02-14T08:37:44Z</time>
      </trkpt>
      <trkpt lat="44.82037" lon="5.04388">
        <ele>326.02</ele>
        <time>2024-02-14T08:37:58Z</time>
      </trkpt>
      <trkpt lat="44.8204" lon="5.04418">
        <ele>326.02</ele>
        <time>2024-02-14T08:38:15Z</time>
      </trkpt>
      <trkpt lat="44.82035" lon="5.04459">
        <ele>324.58</ele>
        <time>2024-02-14T08:38:37Z</time>
      </trkpt>
      <trkpt lat="44.82026" lon="5.0449">
        <ele>323.62</ele>
        <time>2024-02-14T08:38:55Z</time>
      </trkpt>
      <trkpt lat="44.82009" lon="5.04507">
        <ele>323.14</ele>
        <time>2024-02-14T08:39:11Z</time>
      </trkpt>
      <trkpt lat="44.81983" lon="5.04523">
        <ele>323.14</ele>
        <time>2024-02-14T08:39:34Z</time>
      </trkpt>
      <trkpt lat="44.81981" lon="5.04525">
        <ele>324.1</ele>
        <time>2024-02-14T08:39:36Z</time>
      </trkpt>
      <trkpt lat="44.81964" lon="5.04541">
        <ele>326.5</ele>
        <time>2024-02-14T08:39:53Z</time>
      </trkpt>
      <trkpt lat="44.81948" lon="5.04551">
        <ele>329.39</ele>
        <time>2024-02-14T08:40:09Z</time>
      </trkpt>
      <trkpt lat="44.81933" lon="5.04556">
        <ele>331.31</ele>
        <time>2024-02-14T08:40:23Z</time>
      </trkpt>
      <trkpt lat="44.81911" lon="5.04563">
        <ele>332.75</ele>
        <time>2024-02-14T08:40:40Z</time>
      </trkpt>
      <trkpt lat="44.81889" lon="5.04573">
        <ele>333.71</ele>
        <time>2024-02-14T08:40:57Z</time>
      </trkpt>
      <trkpt lat="44.81866" lon="5.0458">
        <ele>333.71</ele>
        <time>2024-02-14T08:41:15Z</time>
      </trkpt>
      <trkpt lat="44.81842" lon="5.04589">
        <ele>334.68</ele>
        <time>2024-02-14T08:41:34Z</time>
      </trkpt>
      <trkpt lat="44.81822" lon="5.04598">
        <ele>335.16</ele>
        <time>2024-02-14T08:41:50Z</time>
      </trkpt>
      <trkpt lat="44.81801" lon="5.04608">
        <ele>336.6</ele>
        <time>2024-02-14T08:42:07Z</time>
      </trkpt>
      <trkpt lat="44.81779" lon="5.04619">
        <ele>338.52</ele>
        <time>2024-02-14T08:42:26Z</time>
      </trkpt>
      <trkpt lat="44.81761" lon="5.04629">
        <ele>339.96</ele>
        <time>2024-02-14T08:42:42Z</time>
      </trkpt>
      <trkpt lat="44.81737" lon="5.0464">
        <ele>340.92</ele>
        <time>2024-02-14T08:43:02Z</time>
      </trkpt>
      <trkpt lat="44.81719" lon="5.04648">
        <ele>342.37</ele>
        <time>2024-02-14T08:43:17Z</time>
      </trkpt>
      <trkpt lat="44.81705" lon="5.04657">
        <ele>343.81</ele>
        <time>2024-02-14T08:43:32Z</time>
      </trkpt>
      <trkpt lat="44.81683" lon="5.04662">
        <ele>343.33</ele>
        <time>2024-02-14T08:43:51Z</time>
      </trkpt>
      <trkpt lat="44.81659" lon="5.04668">
        <ele>343.33</ele>
        <time>2024-02-14T08:44:10Z</time>
      </trkpt>
      <trkpt lat="44.81637" lon="5.04672">
        <ele>344.29</ele>
        <time>2024-02-14T08:44:28Z</time>
      </trkpt>
      <trkpt lat="44.81617" lon="5.04676">
        <ele>341.89</ele>
        <time>2024-02-14T08:44:44Z</time>
      </trkpt>
      <trkpt lat="44.81592" lon="5.04686">
        <ele>340.44</ele>
        <time>2024-02-14T08:45:03Z</time>
      </trkpt>
      <trkpt lat="44.81572" lon="5.04714">
        <ele>338.04</ele>
        <time>2024-02-14T08:45:23Z</time>
      </trkpt>
      <trkpt lat="44.81553" lon="5.04721">
        <ele>337.56</ele>
        <time>2024-02-14T08:45:39Z</time>
      </trkpt>
      <trkpt lat="44.81551" lon="5.04721">
        <ele>337.56</ele>
        <time>2024-02-14T08:45:40Z</time>
      </trkpt>
      <trkpt lat="44.81543" lon="5.04711">
        <ele>337.56</ele>
        <time>2024-02-14T08:45:54Z</time>
      </trkpt>
      <trkpt lat="44.81541" lon="5.04709">
        <ele>337.56</ele>
        <time>2024-02-14T08:47:48Z</time>
      </trkpt>
      <trkpt lat="44.81538" lon="5.04706">
        <ele>337.56</ele>
        <time>2024-02-14T08:48:03Z</time>
      </trkpt>
      <trkpt lat="44.81532" lon="5.04704">
        <ele>337.56</ele>
        <time>2024-02-14T08:48:09Z</time>
      </trkpt>
      <trkpt lat="44.81508" lon="5.047">
        <ele>336.12</ele>
        <time>2024-02-14T08:48:28Z</time>
      </trkpt>
      <trkpt lat="44.81489" lon="5.04694">
        <ele>336.12</ele>
        <time>2024-02-14T08:48:43Z</time>
      </trkpt>
      <trkpt lat="44.81487" lon="5.04695">
        <ele>337.08</ele>
        <time>2024-02-14T08:48:45Z</time>
      </trkpt>
      <trkpt lat="44.81486" lon="5.04695">
        <ele>337.56</ele>
        <time>2024-02-14T08:48:46Z</time>
      </trkpt>
      <trkpt lat="44.8147" lon="5.04706">
        <ele>339</ele>
        <time>2024-02-14T08:49:01Z</time>
      </trkpt>
      <trkpt lat="44.81462" lon="5.04711">
        <ele>339.48</ele>
        <time>2024-02-14T08:49:09Z</time>
      </trkpt>
      <trkpt lat="44.81443" lon="5.04718">
        <ele>339.96</ele>
        <time>2024-02-14T08:49:27Z</time>
      </trkpt>
      <trkpt lat="44.81427" lon="5.04721">
        <ele>339.96</ele>
        <time>2024-02-14T08:49:41Z</time>
      </trkpt>
      <trkpt lat="44.81404" lon="5.04724">
        <ele>339.96</ele>
        <time>2024-02-14T08:49:59Z</time>
      </trkpt>
      <trkpt lat="44.81386" lon="5.04727">
        <ele>340.92</ele>
        <time>2024-02-14T08:50:14Z</time>
      </trkpt>
      <trkpt lat="44.8137" lon="5.04736">
        <ele>341.89</ele>
        <time>2024-02-14T08:50:30Z</time>
      </trkpt>
      <trkpt lat="44.8136" lon="5.04743">
        <ele>342.85</ele>
        <time>2024-02-14T08:50:40Z</time>
      </trkpt>
      <trkpt lat="44.81359" lon="5.04745">
        <ele>342.85</ele>
        <time>2024-02-14T08:50:42Z</time>
      </trkpt>
      <trkpt lat="44.81346" lon="5.04761">
        <ele>343.33</ele>
        <time>2024-02-14T08:50:58Z</time>
      </trkpt>
      <trkpt lat="44.81336" lon="5.04772">
        <ele>344.29</ele>
        <time>2024-02-14T08:51:10Z</time>
      </trkpt>
      <trkpt lat="44.8132" lon="5.04783">
        <ele>344.29</ele>
        <time>2024-02-14T08:51:25Z</time>
      </trkpt>
      <trkpt lat="44.81307" lon="5.04792">
        <ele>344.29</ele>
        <time>2024-02-14T08:51:39Z</time>
      </trkpt>
      <trkpt lat="44.81304" lon="5.04794">
        <ele>344.77</ele>
        <time>2024-02-14T08:51:42Z</time>
      </trkpt>
      <trkpt lat="44.81297" lon="5.048">
        <ele>344.77</ele>
        <time>2024-02-14T08:51:50Z</time>
      </trkpt>
      <trkpt lat="44.81285" lon="5.04801">
        <ele>344.77</ele>
        <time>2024-02-14T08:52:04Z</time>
      </trkpt>
      <trkpt lat="44.81284" lon="5.04802">
        <ele>344.77</ele>
        <time>2024-02-14T08:52:07Z</time>
      </trkpt>
      <trkpt lat="44.81276" lon="5.04806">
        <ele>344.77</ele>
        <time>2024-02-14T08:52:22Z</time>
      </trkpt>
      <trkpt lat="44.81265" lon="5.04815">
        <ele>346.69</ele>
        <time>2024-02-14T08:52:36Z</time>
      </trkpt>
      <trkpt lat="44.81256" lon="5.04823">
        <ele>349.1</ele>
        <time>2024-02-14T08:52:49Z</time>
      </trkpt>
      <trkpt lat="44.8125" lon="5.04828">
        <ele>350.54</ele>
        <time>2024-02-14T08:53:03Z</time>
      </trkpt>
      <trkpt lat="44.81241" lon="5.04834">
        <ele>352.94</ele>
        <time>2024-02-14T08:53:19Z</time>
      </trkpt>
      <trkpt lat="44.81231" lon="5.04842">
        <ele>355.34</ele>
        <time>2024-02-14T08:53:33Z</time>
      </trkpt>
      <trkpt lat="44.81225" lon="5.04854">
        <ele>357.75</ele>
        <time>2024-02-14T08:53:48Z</time>
      </trkpt>
      <trkpt lat="44.81217" lon="5.04867">
        <ele>360.15</ele>
        <time>2024-02-14T08:54:05Z</time>
      </trkpt>
      <trkpt lat="44.81214" lon="5.0487">
        <ele>361.11</ele>
        <time>2024-02-14T08:54:55Z</time>
      </trkpt>
      <trkpt lat="44.81212" lon="5.04872">
        <ele>362.07</ele>
        <time>2024-02-14T08:55:09Z</time>
      </trkpt>
      <trkpt lat="44.812" lon="5.04873">
        <ele>364.96</ele>
        <time>2024-02-14T08:55:24Z</time>
      </trkpt>
      <trkpt lat="44.81189" lon="5.04874">
        <ele>368.32</ele>
        <time>2024-02-14T08:55:37Z</time>
      </trkpt>
      <trkpt lat="44.81179" lon="5.04879">
        <ele>371.21</ele>
        <time>2024-02-14T08:55:52Z</time>
      </trkpt>
      <trkpt lat="44.81175" lon="5.04889">
        <ele>374.09</ele>
        <time>2024-02-14T08:56:05Z</time>
      </trkpt>
      <trkpt lat="44.81177" lon="5.04898">
        <ele>375.05</ele>
        <time>2024-02-14T08:56:11Z</time>
      </trkpt>
      <trkpt lat="44.81177" lon="5.04908">
        <ele>376.01</ele>
        <time>2024-02-14T08:56:19Z</time>
      </trkpt>
      <trkpt lat="44.81171" lon="5.04914">
        <ele>377.94</ele>
        <time>2024-02-14T08:56:32Z</time>
      </trkpt>
      <trkpt lat="44.81167" lon="5.04914">
        <ele>377.94</ele>
        <time>2024-02-14T08:56:41Z</time>
      </trkpt>
      <trkpt lat="44.81165" lon="5.04914">
        <ele>378.42</ele>
        <time>2024-02-14T08:56:44Z</time>
      </trkpt>
      <trkpt lat="44.81149" lon="5.04919">
        <ele>379.86</ele>
        <time>2024-02-14T08:57:01Z</time>
      </trkpt>
      <trkpt lat="44.8114" lon="5.04924">
        <ele>380.82</ele>
        <time>2024-02-14T08:57:13Z</time>
      </trkpt>
      <trkpt lat="44.81126" lon="5.04932">
        <ele>382.26</ele>
        <time>2024-02-14T08:57:28Z</time>
      </trkpt>
      <trkpt lat="44.81109" lon="5.04942">
        <ele>383.7</ele>
        <time>2024-02-14T08:57:45Z</time>
      </trkpt>
      <trkpt lat="44.81091" lon="5.0495">
        <ele>384.18</ele>
        <time>2024-02-14T08:58:02Z</time>
      </trkpt>
      <trkpt lat="44.81075" lon="5.0496">
        <ele>384.66</ele>
        <time>2024-02-14T08:58:17Z</time>
      </trkpt>
      <trkpt lat="44.81068" lon="5.04964">
        <ele>385.15</ele>
        <time>2024-02-14T08:58:24Z</time>
      </trkpt>
      <trkpt lat="44.81064" lon="5.04967">
        <ele>385.63</ele>
        <time>2024-02-14T08:58:28Z</time>
      </trkpt>
      <trkpt lat="44.81055" lon="5.04981">
        <ele>386.59</ele>
        <time>2024-02-14T08:58:42Z</time>
      </trkpt>
      <trkpt lat="44.81048" lon="5.04989">
        <ele>387.07</ele>
        <time>2024-02-14T08:58:51Z</time>
      </trkpt>
      <trkpt lat="44.81042" lon="5.04995">
        <ele>387.55</ele>
        <time>2024-02-14T08:58:58Z</time>
      </trkpt>
      <trkpt lat="44.81027" lon="5.05003">
        <ele>388.51</ele>
        <time>2024-02-14T08:59:12Z</time>
      </trkpt>
      <trkpt lat="44.81007" lon="5.05012">
        <ele>389.95</ele>
        <time>2024-02-14T08:59:30Z</time>
      </trkpt>
      <trkpt lat="44.80993" lon="5.05017">
        <ele>390.91</ele>
        <time>2024-02-14T08:59:44Z</time>
      </trkpt>
      <trkpt lat="44.80978" lon="5.05026">
        <ele>390.91</ele>
        <time>2024-02-14T08:59:58Z</time>
      </trkpt>
      <trkpt lat="44.8096" lon="5.05036">
        <ele>389.47</ele>
        <time>2024-02-14T09:00:14Z</time>
      </trkpt>
      <trkpt lat="44.8094" lon="5.05048">
        <ele>387.07</ele>
        <time>2024-02-14T09:00:33Z</time>
      </trkpt>
      <trkpt lat="44.80923" lon="5.05057">
        <ele>385.63</ele>
        <time>2024-02-14T09:00:48Z</time>
      </trkpt>
      <trkpt lat="44.809" lon="5.05063">
        <ele>383.22</ele>
        <time>2024-02-14T09:01:07Z</time>
      </trkpt>
      <trkpt lat="44.80879" lon="5.05065">
        <ele>382.74</ele>
        <time>2024-02-14T09:01:25Z</time>
      </trkpt>
      <trkpt lat="44.80856" lon="5.05069">
        <ele>382.26</ele>
        <time>2024-02-14T09:01:45Z</time>
      </trkpt>
      <trkpt lat="44.80833" lon="5.05072">
        <ele>381.78</ele>
        <time>2024-02-14T09:02:05Z</time>
      </trkpt>
      <trkpt lat="44.80812" lon="5.05072">
        <ele>381.78</ele>
        <time>2024-02-14T09:02:22Z</time>
      </trkpt>
      <trkpt lat="44.80789" lon="5.05073">
        <ele>380.34</ele>
        <time>2024-02-14T09:02:40Z</time>
      </trkpt>
      <trkpt lat="44.80764" lon="5.05074">
        <ele>379.38</ele>
        <time>2024-02-14T09:02:59Z</time>
      </trkpt>
      <trkpt lat="44.80737" lon="5.05079">
        <ele>376.49</ele>
        <time>2024-02-14T09:03:21Z</time>
      </trkpt>
      <trkpt lat="44.80714" lon="5.05088">
        <ele>374.09</ele>
        <time>2024-02-14T09:03:40Z</time>
      </trkpt>
      <trkpt lat="44.80693" lon="5.051">
        <ele>372.17</ele>
        <time>2024-02-14T09:03:57Z</time>
      </trkpt>
      <trkpt lat="44.80681" lon="5.05105">
        <ele>370.73</ele>
        <time>2024-02-14T09:04:12Z</time>
      </trkpt>
      <trkpt lat="44.80672" lon="5.05112">
        <ele>369.76</ele>
        <time>2024-02-14T09:04:27Z</time>
      </trkpt>
      <trkpt lat="44.80661" lon="5.05121">
        <ele>369.76</ele>
        <time>2024-02-14T09:04:42Z</time>
      </trkpt>
      <trkpt lat="44.80649" lon="5.0513">
        <ele>372.65</ele>
        <time>2024-02-14T09:04:58Z</time>
      </trkpt>
      <trkpt lat="44.80632" lon="5.0514">
        <ele>375.05</ele>
        <time>2024-02-14T09:05:17Z</time>
      </trkpt>
      <trkpt lat="44.80617" lon="5.0515">
        <ele>377.45</ele>
        <time>2024-02-14T09:05:33Z</time>
      </trkpt>
      <trkpt lat="44.80611" lon="5.05153">
        <ele>377.94</ele>
        <time>2024-02-14T09:05:40Z</time>
      </trkpt>
      <trkpt lat="44.806" lon="5.05161">
        <ele>380.82</ele>
        <time>2024-02-14T09:05:54Z</time>
      </trkpt>
      <trkpt lat="44.8059" lon="5.05172">
        <ele>382.74</ele>
        <time>2024-02-14T09:06:10Z</time>
      </trkpt>
      <trkpt lat="44.80589" lon="5.05179">
        <ele>383.7</ele>
        <time>2024-02-14T09:06:26Z</time>
      </trkpt>
      <trkpt lat="44.80591" lon="5.05182">
        <ele>384.66</ele>
        <time>2024-02-14T09:09:24Z</time>
      </trkpt>
      <trkpt lat="44.80593" lon="5.052">
        <ele>387.07</ele>
        <time>2024-02-14T09:09:41Z</time>
      </trkpt>
      <trkpt lat="44.80594" lon="5.05219">
        <ele>388.99</ele>
        <time>2024-02-14T09:09:58Z</time>
      </trkpt>
      <trkpt lat="44.80593" lon="5.0524">
        <ele>390.91</ele>
        <time>2024-02-14T09:10:14Z</time>
      </trkpt>
      <trkpt lat="44.80592" lon="5.05259">
        <ele>393.32</ele>
        <time>2024-02-14T09:10:30Z</time>
      </trkpt>
      <trkpt lat="44.80591" lon="5.05268">
        <ele>393.8</ele>
        <time>2024-02-14T09:10:35Z</time>
      </trkpt>
      <trkpt lat="44.8059" lon="5.05276">
        <ele>394.76</ele>
        <time>2024-02-14T09:10:40Z</time>
      </trkpt>
      <trkpt lat="44.80589" lon="5.05296">
        <ele>397.16</ele>
        <time>2024-02-14T09:10:55Z</time>
      </trkpt>
      <trkpt lat="44.80587" lon="5.05316">
        <ele>399.57</ele>
        <time>2024-02-14T09:11:11Z</time>
      </trkpt>
      <trkpt lat="44.80584" lon="5.05337">
        <ele>401.97</ele>
        <time>2024-02-14T09:11:27Z</time>
      </trkpt>
      <trkpt lat="44.80583" lon="5.05356">
        <ele>403.89</ele>
        <time>2024-02-14T09:11:43Z</time>
      </trkpt>
      <trkpt lat="44.80581" lon="5.05373">
        <ele>406.29</ele>
        <time>2024-02-14T09:11:59Z</time>
      </trkpt>
      <trkpt lat="44.80579" lon="5.05379">
        <ele>406.77</ele>
        <time>2024-02-14T09:12:03Z</time>
      </trkpt>
      <trkpt lat="44.80575" lon="5.054">
        <ele>409.18</ele>
        <time>2024-02-14T09:12:20Z</time>
      </trkpt>
      <trkpt lat="44.80569" lon="5.05418">
        <ele>411.1</ele>
        <time>2024-02-14T09:12:34Z</time>
      </trkpt>
      <trkpt lat="44.80562" lon="5.05434">
        <ele>413.5</ele>
        <time>2024-02-14T09:12:49Z</time>
      </trkpt>
      <trkpt lat="44.80558" lon="5.05444">
        <ele>414.47</ele>
        <time>2024-02-14T09:12:56Z</time>
      </trkpt>
      <trkpt lat="44.80552" lon="5.05465">
        <ele>416.87</ele>
        <time>2024-02-14T09:13:13Z</time>
      </trkpt>
      <trkpt lat="44.80552" lon="5.05475">
        <ele>417.35</ele>
        <time>2024-02-14T09:13:27Z</time>
      </trkpt>
      <trkpt lat="44.80552" lon="5.05475">
        <ele>417.83</ele>
        <time>2024-02-14T09:14:24Z</time>
      </trkpt>
      <trkpt lat="44.80553" lon="5.05482">
        <ele>418.31</ele>
        <time>2024-02-14T09:14:52Z</time>
      </trkpt>
      <trkpt lat="44.80556" lon="5.05498">
        <ele>420.71</ele>
        <time>2024-02-14T09:15:07Z</time>
      </trkpt>
      <trkpt lat="44.80556" lon="5.05501">
        <ele>421.19</ele>
        <time>2024-02-14T09:15:14Z</time>
      </trkpt>
      <trkpt lat="44.80557" lon="5.05508">
        <ele>421.68</ele>
        <time>2024-02-14T09:15:20Z</time>
      </trkpt>
      <trkpt lat="44.80562" lon="5.05531">
        <ele>424.08</ele>
        <time>2024-02-14T09:15:36Z</time>
      </trkpt>
      <trkpt lat="44.80564" lon="5.05535">
        <ele>424.56</ele>
        <time>2024-02-14T09:15:39Z</time>
      </trkpt>
      <trkpt lat="44.80568" lon="5.05552">
        <ele>426</ele>
        <time>2024-02-14T09:15:54Z</time>
      </trkpt>
      <trkpt lat="44.80567" lon="5.0556">
        <ele>426</ele>
        <time>2024-02-14T09:16:04Z</time>
      </trkpt>
      <trkpt lat="44.80564" lon="5.05568">
        <ele>426.48</ele>
        <time>2024-02-14T09:16:11Z</time>
      </trkpt>
      <trkpt lat="44.80563" lon="5.05579">
        <ele>426.48</ele>
        <time>2024-02-14T09:16:19Z</time>
      </trkpt>
      <trkpt lat="44.80558" lon="5.05598">
        <ele>426.48</ele>
        <time>2024-02-14T09:16:33Z</time>
      </trkpt>
      <trkpt lat="44.80556" lon="5.05605">
        <ele>426.48</ele>
        <time>2024-02-14T09:16:46Z</time>
      </trkpt>
      <trkpt lat="44.80551" lon="5.05618">
        <ele>427.44</ele>
        <time>2024-02-14T09:16:59Z</time>
      </trkpt>
      <trkpt lat="44.80548" lon="5.05637">
        <ele>429.37</ele>
        <time>2024-02-14T09:17:14Z</time>
      </trkpt>
      <trkpt lat="44.80546" lon="5.05656">
        <ele>430.81</ele>
        <time>2024-02-14T09:17:28Z</time>
      </trkpt>
      <trkpt lat="44.80547" lon="5.05673">
        <ele>433.21</ele>
        <time>2024-02-14T09:17:43Z</time>
      </trkpt>
      <trkpt lat="44.80549" lon="5.05691">
        <ele>435.13</ele>
        <time>2024-02-14T09:17:58Z</time>
      </trkpt>
      <trkpt lat="44.80551" lon="5.05706">
        <ele>437.54</ele>
        <time>2024-02-14T09:18:12Z</time>
      </trkpt>
      <trkpt lat="44.80555" lon="5.05724">
        <ele>439.46</ele>
        <time>2024-02-14T09:18:26Z</time>
      </trkpt>
      <trkpt lat="44.80559" lon="5.05741">
        <ele>440.9</ele>
        <time>2024-02-14T09:18:41Z</time>
      </trkpt>
      <trkpt lat="44.80562" lon="5.05758">
        <ele>443.31</ele>
        <time>2024-02-14T09:18:56Z</time>
      </trkpt>
      <trkpt lat="44.80567" lon="5.05777">
        <ele>445.71</ele>
        <time>2024-02-14T09:19:11Z</time>
      </trkpt>
      <trkpt lat="44.80571" lon="5.05784">
        <ele>446.19</ele>
        <time>2024-02-14T09:19:18Z</time>
      </trkpt>
      <trkpt lat="44.80577" lon="5.05799">
        <ele>448.11</ele>
        <time>2024-02-14T09:19:33Z</time>
      </trkpt>
      <trkpt lat="44.80583" lon="5.05811">
        <ele>449.55</ele>
        <time>2024-02-14T09:19:46Z</time>
      </trkpt>
      <trkpt lat="44.80589" lon="5.05825">
        <ele>451.96</ele>
        <time>2024-02-14T09:19:59Z</time>
      </trkpt>
      <trkpt lat="44.80596" lon="5.0584">
        <ele>453.88</ele>
        <time>2024-02-14T09:20:15Z</time>
      </trkpt>
      <trkpt lat="44.80603" lon="5.05855">
        <ele>456.28</ele>
        <time>2024-02-14T09:20:30Z</time>
      </trkpt>
      <trkpt lat="44.80609" lon="5.05871">
        <ele>458.21</ele>
        <time>2024-02-14T09:20:44Z</time>
      </trkpt>
      <trkpt lat="44.80613" lon="5.05888">
        <ele>460.13</ele>
        <time>2024-02-14T09:20:58Z</time>
      </trkpt>
      <trkpt lat="44.80614" lon="5.05893">
        <ele>460.13</ele>
        <time>2024-02-14T09:21:02Z</time>
      </trkpt>
      <trkpt lat="44.80615" lon="5.05913">
        <ele>462.53</ele>
        <time>2024-02-14T09:21:18Z</time>
      </trkpt>
      <trkpt lat="44.80614" lon="5.05931">
        <ele>464.45</ele>
        <time>2024-02-14T09:21:32Z</time>
      </trkpt>
      <trkpt lat="44.80612" lon="5.0595">
        <ele>465.9</ele>
        <time>2024-02-14T09:21:47Z</time>
      </trkpt>
      <trkpt lat="44.8061" lon="5.05966">
        <ele>467.82</ele>
        <time>2024-02-14T09:22:01Z</time>
      </trkpt>
      <trkpt lat="44.80609" lon="5.05978">
        <ele>468.78</ele>
        <time>2024-02-14T09:22:13Z</time>
      </trkpt>
      <trkpt lat="44.80608" lon="5.05995">
        <ele>470.7</ele>
        <time>2024-02-14T09:22:29Z</time>
      </trkpt>
      <trkpt lat="44.80607" lon="5.06008">
        <ele>472.14</ele>
        <time>2024-02-14T09:22:42Z</time>
      </trkpt>
      <trkpt lat="44.80605" lon="5.06027">
        <ele>473.59</ele>
        <time>2024-02-14T09:22:56Z</time>
      </trkpt>
      <trkpt lat="44.80603" lon="5.06043">
        <ele>475.03</ele>
        <time>2024-02-14T09:23:11Z</time>
      </trkpt>
      <trkpt lat="44.80602" lon="5.06063">
        <ele>477.43</ele>
        <time>2024-02-14T09:23:27Z</time>
      </trkpt>
      <trkpt lat="44.80602" lon="5.06082">
        <ele>479.35</ele>
        <time>2024-02-14T09:23:42Z</time>
      </trkpt>
      <trkpt lat="44.80605" lon="5.06098">
        <ele>481.28</ele>
        <time>2024-02-14T09:23:56Z</time>
      </trkpt>
      <trkpt lat="44.80608" lon="5.06115">
        <ele>484.16</ele>
        <time>2024-02-14T09:24:13Z</time>
      </trkpt>
      <trkpt lat="44.80611" lon="5.06131">
        <ele>486.08</ele>
        <time>2024-02-14T09:24:30Z</time>
      </trkpt>
      <trkpt lat="44.80612" lon="5.06147">
        <ele>488.97</ele>
        <time>2024-02-14T09:24:47Z</time>
      </trkpt>
      <trkpt lat="44.80616" lon="5.06164">
        <ele>491.37</ele>
        <time>2024-02-14T09:25:03Z</time>
      </trkpt>
      <trkpt lat="44.80617" lon="5.06181">
        <ele>493.77</ele>
        <time>2024-02-14T09:25:18Z</time>
      </trkpt>
      <trkpt lat="44.80616" lon="5.06198">
        <ele>494.74</ele>
        <time>2024-02-14T09:25:33Z</time>
      </trkpt>
      <trkpt lat="44.80609" lon="5.06214">
        <ele>496.66</ele>
        <time>2024-02-14T09:25:47Z</time>
      </trkpt>
      <trkpt lat="44.80601" lon="5.06231">
        <ele>498.58</ele>
        <time>2024-02-14T09:26:03Z</time>
      </trkpt>
      <trkpt lat="44.80597" lon="5.06243">
        <ele>500.5</ele>
        <time>2024-02-14T09:26:18Z</time>
      </trkpt>
      <trkpt lat="44.80594" lon="5.06259">
        <ele>502.43</ele>
        <time>2024-02-14T09:26:33Z</time>
      </trkpt>
      <trkpt lat="44.8059" lon="5.06277">
        <ele>504.35</ele>
        <time>2024-02-14T09:26:50Z</time>
      </trkpt>
      <trkpt lat="44.80587" lon="5.06295">
        <ele>506.27</ele>
        <time>2024-02-14T09:27:06Z</time>
      </trkpt>
      <trkpt lat="44.80588" lon="5.06311">
        <ele>508.19</ele>
        <time>2024-02-14T09:27:22Z</time>
      </trkpt>
      <trkpt lat="44.8059" lon="5.06326">
        <ele>510.12</ele>
        <time>2024-02-14T09:27:36Z</time>
      </trkpt>
      <trkpt lat="44.80597" lon="5.06342">
        <ele>512.52</ele>
        <time>2024-02-14T09:27:53Z</time>
      </trkpt>
      <trkpt lat="44.80601" lon="5.06358">
        <ele>515.4</ele>
        <time>2024-02-14T09:28:08Z</time>
      </trkpt>
      <trkpt lat="44.80605" lon="5.06373">
        <ele>517.81</ele>
        <time>2024-02-14T09:28:22Z</time>
      </trkpt>
      <trkpt lat="44.80611" lon="5.06389">
        <ele>519.73</ele>
        <time>2024-02-14T09:28:39Z</time>
      </trkpt>
      <trkpt lat="44.80614" lon="5.06406">
        <ele>522.61</ele>
        <time>2024-02-14T09:28:56Z</time>
      </trkpt>
      <trkpt lat="44.80616" lon="5.06415">
        <ele>523.58</ele>
        <time>2024-02-14T09:29:05Z</time>
      </trkpt>
      <trkpt lat="44.80618" lon="5.06424">
        <ele>525.5</ele>
        <time>2024-02-14T09:29:14Z</time>
      </trkpt>
      <trkpt lat="44.80617" lon="5.06441">
        <ele>528.38</ele>
        <time>2024-02-14T09:29:31Z</time>
      </trkpt>
      <trkpt lat="44.80619" lon="5.06454">
        <ele>530.79</ele>
        <time>2024-02-14T09:29:47Z</time>
      </trkpt>
      <trkpt lat="44.80619" lon="5.06466">
        <ele>533.19</ele>
        <time>2024-02-14T09:30:01Z</time>
      </trkpt>
      <trkpt lat="44.8062" lon="5.06484">
        <ele>535.11</ele>
        <time>2024-02-14T09:30:15Z</time>
      </trkpt>
      <trkpt lat="44.8062" lon="5.06498">
        <ele>537.51</ele>
        <time>2024-02-14T09:30:29Z</time>
      </trkpt>
      <trkpt lat="44.8062" lon="5.06508">
        <ele>538.96</ele>
        <time>2024-02-14T09:30:37Z</time>
      </trkpt>
      <trkpt lat="44.80625" lon="5.06526">
        <ele>540.88</ele>
        <time>2024-02-14T09:30:53Z</time>
      </trkpt>
      <trkpt lat="44.80633" lon="5.06536">
        <ele>543.28</ele>
        <time>2024-02-14T09:31:06Z</time>
      </trkpt>
      <trkpt lat="44.80644" lon="5.06548">
        <ele>546.17</ele>
        <time>2024-02-14T09:31:24Z</time>
      </trkpt>
      <trkpt lat="44.80651" lon="5.06553">
        <ele>547.61</ele>
        <time>2024-02-14T09:31:33Z</time>
      </trkpt>
      <trkpt lat="44.80662" lon="5.06564">
        <ele>550.49</ele>
        <time>2024-02-14T09:31:49Z</time>
      </trkpt>
      <trkpt lat="44.8067" lon="5.06574">
        <ele>552.9</ele>
        <time>2024-02-14T09:32:05Z</time>
      </trkpt>
      <trkpt lat="44.80674" lon="5.06587">
        <ele>555.3</ele>
        <time>2024-02-14T09:32:19Z</time>
      </trkpt>
      <trkpt lat="44.80675" lon="5.06589">
        <ele>555.78</ele>
        <time>2024-02-14T09:32:21Z</time>
      </trkpt>
      <trkpt lat="44.80681" lon="5.066">
        <ele>558.18</ele>
        <time>2024-02-14T09:32:36Z</time>
      </trkpt>
      <trkpt lat="44.80687" lon="5.0661">
        <ele>560.11</ele>
        <time>2024-02-14T09:32:52Z</time>
      </trkpt>
      <trkpt lat="44.80685" lon="5.06616">
        <ele>561.55</ele>
        <time>2024-02-14T09:35:47Z</time>
      </trkpt>
      <trkpt lat="44.80684" lon="5.06618">
        <ele>561.55</ele>
        <time>2024-02-14T09:36:07Z</time>
      </trkpt>
      <trkpt lat="44.80684" lon="5.06618">
        <ele>561.55</ele>
        <time>2024-02-14T09:36:25Z</time>
      </trkpt>
      <trkpt lat="44.80682" lon="5.06623">
        <ele>562.51</ele>
        <time>2024-02-14T09:36:45Z</time>
      </trkpt>
      <trkpt lat="44.80681" lon="5.06625">
        <ele>563.47</ele>
        <time>2024-02-14T09:37:04Z</time>
      </trkpt>
      <trkpt lat="44.80674" lon="5.06626">
        <ele>565.39</ele>
        <time>2024-02-14T09:37:17Z</time>
      </trkpt>
      <trkpt lat="44.80667" lon="5.06633">
        <ele>568.76</ele>
        <time>2024-02-14T09:37:31Z</time>
      </trkpt>
      <trkpt lat="44.80663" lon="5.06643">
        <ele>571.16</ele>
        <time>2024-02-14T09:37:47Z</time>
      </trkpt>
      <trkpt lat="44.80662" lon="5.06654">
        <ele>574.53</ele>
        <time>2024-02-14T09:38:02Z</time>
      </trkpt>
      <trkpt lat="44.8066" lon="5.06669">
        <ele>577.41</ele>
        <time>2024-02-14T09:38:18Z</time>
      </trkpt>
      <trkpt lat="44.80659" lon="5.0668">
        <ele>580.77</ele>
        <time>2024-02-14T09:38:35Z</time>
      </trkpt>
      <trkpt lat="44.80656" lon="5.06693">
        <ele>583.66</ele>
        <time>2024-02-14T09:38:51Z</time>
      </trkpt>
      <trkpt lat="44.8066" lon="5.06709">
        <ele>586.06</ele>
        <time>2024-02-14T09:39:09Z</time>
      </trkpt>
      <trkpt lat="44.80663" lon="5.06726">
        <ele>588.46</ele>
        <time>2024-02-14T09:39:26Z</time>
      </trkpt>
      <trkpt lat="44.80665" lon="5.0674">
        <ele>591.35</ele>
        <time>2024-02-14T09:39:42Z</time>
      </trkpt>
      <trkpt lat="44.80668" lon="5.06755">
        <ele>594.23</ele>
        <time>2024-02-14T09:39:59Z</time>
      </trkpt>
      <trkpt lat="44.80672" lon="5.06766">
        <ele>597.12</ele>
        <time>2024-02-14T09:40:15Z</time>
      </trkpt>
      <trkpt lat="44.80675" lon="5.06774">
        <ele>600</ele>
        <time>2024-02-14T09:40:31Z</time>
      </trkpt>
      <trkpt lat="44.8068" lon="5.06786">
        <ele>602.88</ele>
        <time>2024-02-14T09:40:48Z</time>
      </trkpt>
      <trkpt lat="44.80684" lon="5.06797">
        <ele>605.77</ele>
        <time>2024-02-14T09:41:03Z</time>
      </trkpt>
      <trkpt lat="44.80684" lon="5.06812">
        <ele>608.65</ele>
        <time>2024-02-14T09:41:20Z</time>
      </trkpt>
      <trkpt lat="44.80682" lon="5.06824">
        <ele>611.06</ele>
        <time>2024-02-14T09:41:36Z</time>
      </trkpt>
      <trkpt lat="44.8068" lon="5.0684">
        <ele>613.46</ele>
        <time>2024-02-14T09:41:53Z</time>
      </trkpt>
      <trkpt lat="44.80677" lon="5.06854">
        <ele>615.38</ele>
        <time>2024-02-14T09:42:08Z</time>
      </trkpt>
      <trkpt lat="44.80673" lon="5.06868">
        <ele>618.75</ele>
        <time>2024-02-14T09:42:23Z</time>
      </trkpt>
      <trkpt lat="44.80669" lon="5.06873">
        <ele>619.23</ele>
        <time>2024-02-14T09:42:30Z</time>
      </trkpt>
      <trkpt lat="44.80659" lon="5.06882">
        <ele>618.75</ele>
        <time>2024-02-14T09:42:41Z</time>
      </trkpt>
      <trkpt lat="44.8064" lon="5.06895">
        <ele>618.75</ele>
        <time>2024-02-14T09:42:56Z</time>
      </trkpt>
      <trkpt lat="44.80622" lon="5.06905">
        <ele>620.67</ele>
        <time>2024-02-14T09:43:13Z</time>
      </trkpt>
      <trkpt lat="44.80607" lon="5.06913">
        <ele>621.15</ele>
        <time>2024-02-14T09:43:29Z</time>
      </trkpt>
      <trkpt lat="44.80592" lon="5.0692">
        <ele>622.59</ele>
        <time>2024-02-14T09:43:44Z</time>
      </trkpt>
      <trkpt lat="44.80577" lon="5.06926">
        <ele>624.03</ele>
        <time>2024-02-14T09:43:59Z</time>
      </trkpt>
      <trkpt lat="44.80564" lon="5.0693">
        <ele>626.44</ele>
        <time>2024-02-14T09:44:13Z</time>
      </trkpt>
      <trkpt lat="44.80553" lon="5.06935">
        <ele>628.36</ele>
        <time>2024-02-14T09:44:27Z</time>
      </trkpt>
      <trkpt lat="44.80543" lon="5.06946">
        <ele>630.28</ele>
        <time>2024-02-14T09:44:43Z</time>
      </trkpt>
      <trkpt lat="44.80537" lon="5.06952">
        <ele>632.2</ele>
        <time>2024-02-14T09:44:59Z</time>
      </trkpt>
      <trkpt lat="44.8053" lon="5.06963">
        <ele>634.61</ele>
        <time>2024-02-14T09:45:15Z</time>
      </trkpt>
      <trkpt lat="44.80522" lon="5.06973">
        <ele>637.97</ele>
        <time>2024-02-14T09:45:32Z</time>
      </trkpt>
      <trkpt lat="44.80513" lon="5.06983">
        <ele>640.86</ele>
        <time>2024-02-14T09:45:48Z</time>
      </trkpt>
      <trkpt lat="44.80504" lon="5.06988">
        <ele>643.26</ele>
        <time>2024-02-14T09:46:03Z</time>
      </trkpt>
      <trkpt lat="44.805" lon="5.06993">
        <ele>644.22</ele>
        <time>2024-02-14T09:46:09Z</time>
      </trkpt>
      <trkpt lat="44.80488" lon="5.07003">
        <ele>647.1</ele>
        <time>2024-02-14T09:46:26Z</time>
      </trkpt>
      <trkpt lat="44.80476" lon="5.07011">
        <ele>649.99</ele>
        <time>2024-02-14T09:46:44Z</time>
      </trkpt>
      <trkpt lat="44.80466" lon="5.07019">
        <ele>652.87</ele>
        <time>2024-02-14T09:47:00Z</time>
      </trkpt>
      <trkpt lat="44.80454" lon="5.07023">
        <ele>655.76</ele>
        <time>2024-02-14T09:47:17Z</time>
      </trkpt>
      <trkpt lat="44.80443" lon="5.07029">
        <ele>657.68</ele>
        <time>2024-02-14T09:47:31Z</time>
      </trkpt>
      <trkpt lat="44.80431" lon="5.07033">
        <ele>660.08</ele>
        <time>2024-02-14T09:47:47Z</time>
      </trkpt>
      <trkpt lat="44.80419" lon="5.07039">
        <ele>662.49</ele>
        <time>2024-02-14T09:48:04Z</time>
      </trkpt>
      <trkpt lat="44.80409" lon="5.07046">
        <ele>665.85</ele>
        <time>2024-02-14T09:48:20Z</time>
      </trkpt>
      <trkpt lat="44.80403" lon="5.07057">
        <ele>668.25</ele>
        <time>2024-02-14T09:48:35Z</time>
      </trkpt>
      <trkpt lat="44.804" lon="5.07066">
        <ele>671.14</ele>
        <time>2024-02-14T09:48:50Z</time>
      </trkpt>
      <trkpt lat="44.80393" lon="5.07076">
        <ele>674.02</ele>
        <time>2024-02-14T09:49:07Z</time>
      </trkpt>
      <trkpt lat="44.80383" lon="5.07085">
        <ele>676.42</ele>
        <time>2024-02-14T09:49:23Z</time>
      </trkpt>
      <trkpt lat="44.80369" lon="5.07091">
        <ele>678.35</ele>
        <time>2024-02-14T09:49:39Z</time>
      </trkpt>
      <trkpt lat="44.80359" lon="5.07093">
        <ele>681.23</ele>
        <time>2024-02-14T09:49:54Z</time>
      </trkpt>
      <trkpt lat="44.80349" lon="5.07094">
        <ele>683.15</ele>
        <time>2024-02-14T09:50:07Z</time>
      </trkpt>
      <trkpt lat="44.80338" lon="5.07096">
        <ele>685.08</ele>
        <time>2024-02-14T09:50:21Z</time>
      </trkpt>
      <trkpt lat="44.80327" lon="5.07099">
        <ele>687.48</ele>
        <time>2024-02-14T09:50:37Z</time>
      </trkpt>
      <trkpt lat="44.80317" lon="5.07104">
        <ele>688.92</ele>
        <time>2024-02-14T09:50:50Z</time>
      </trkpt>
      <trkpt lat="44.80306" lon="5.07114">
        <ele>690.84</ele>
        <time>2024-02-14T09:51:05Z</time>
      </trkpt>
      <trkpt lat="44.80296" lon="5.0712">
        <ele>693.25</ele>
        <time>2024-02-14T09:51:19Z</time>
      </trkpt>
      <trkpt lat="44.80287" lon="5.07123">
        <ele>694.69</ele>
        <time>2024-02-14T09:51:32Z</time>
      </trkpt>
      <trkpt lat="44.80275" lon="5.07128">
        <ele>697.09</ele>
        <time>2024-02-14T09:51:46Z</time>
      </trkpt>
      <trkpt lat="44.80261" lon="5.07135">
        <ele>699.5</ele>
        <time>2024-02-14T09:52:02Z</time>
      </trkpt>
      <trkpt lat="44.80254" lon="5.07139">
        <ele>701.42</ele>
        <time>2024-02-14T09:52:11Z</time>
      </trkpt>
      <trkpt lat="44.80241" lon="5.07145">
        <ele>703.82</ele>
        <time>2024-02-14T09:52:26Z</time>
      </trkpt>
      <trkpt lat="44.80231" lon="5.07151">
        <ele>705.75</ele>
        <time>2024-02-14T09:52:40Z</time>
      </trkpt>
      <trkpt lat="44.80219" lon="5.07158">
        <ele>707.67</ele>
        <time>2024-02-14T09:52:54Z</time>
      </trkpt>
      <trkpt lat="44.80208" lon="5.07164">
        <ele>709.59</ele>
        <time>2024-02-14T09:53:10Z</time>
      </trkpt>
      <trkpt lat="44.80196" lon="5.07172">
        <ele>711.03</ele>
        <time>2024-02-14T09:53:24Z</time>
      </trkpt>
      <trkpt lat="44.80186" lon="5.07175">
        <ele>712.95</ele>
        <time>2024-02-14T09:53:37Z</time>
      </trkpt>
      <trkpt lat="44.80176" lon="5.0718">
        <ele>714.88</ele>
        <time>2024-02-14T09:53:52Z</time>
      </trkpt>
      <trkpt lat="44.80162" lon="5.07183">
        <ele>717.76</ele>
        <time>2024-02-14T09:54:08Z</time>
      </trkpt>
      <trkpt lat="44.80148" lon="5.07186">
        <ele>720.16</ele>
        <time>2024-02-14T09:54:25Z</time>
      </trkpt>
      <trkpt lat="44.80139" lon="5.07191">
        <ele>723.05</ele>
        <time>2024-02-14T09:54:40Z</time>
      </trkpt>
      <trkpt lat="44.80128" lon="5.07196">
        <ele>725.93</ele>
        <time>2024-02-14T09:54:56Z</time>
      </trkpt>
      <trkpt lat="44.80119" lon="5.072">
        <ele>728.34</ele>
        <time>2024-02-14T09:55:10Z</time>
      </trkpt>
      <trkpt lat="44.80108" lon="5.07206">
        <ele>730.74</ele>
        <time>2024-02-14T09:55:25Z</time>
      </trkpt>
      <trkpt lat="44.80099" lon="5.07212">
        <ele>733.14</ele>
        <time>2024-02-14T09:55:39Z</time>
      </trkpt>
      <trkpt lat="44.80088" lon="5.07219">
        <ele>735.07</ele>
        <time>2024-02-14T09:55:54Z</time>
      </trkpt>
      <trkpt lat="44.80076" lon="5.07228">
        <ele>736.99</ele>
        <time>2024-02-14T09:56:11Z</time>
      </trkpt>
      <trkpt lat="44.80069" lon="5.07232">
        <ele>737.47</ele>
        <time>2024-02-14T09:56:27Z</time>
      </trkpt>
      <trkpt lat="44.80059" lon="5.07238">
        <ele>740.35</ele>
        <time>2024-02-14T09:56:43Z</time>
      </trkpt>
      <trkpt lat="44.80048" lon="5.07245">
        <ele>743.24</ele>
        <time>2024-02-14T09:56:58Z</time>
      </trkpt>
      <trkpt lat="44.8004" lon="5.07251">
        <ele>745.16</ele>
        <time>2024-02-14T09:57:12Z</time>
      </trkpt>
      <trkpt lat="44.80031" lon="5.07256">
        <ele>748.52</ele>
        <time>2024-02-14T09:57:29Z</time>
      </trkpt>
      <trkpt lat="44.80025" lon="5.0726">
        <ele>751.41</ele>
        <time>2024-02-14T09:57:43Z</time>
      </trkpt>
      <trkpt lat="44.80015" lon="5.07266">
        <ele>753.33</ele>
        <time>2024-02-14T09:57:59Z</time>
      </trkpt>
      <trkpt lat="44.80005" lon="5.0727">
        <ele>756.21</ele>
        <time>2024-02-14T09:58:14Z</time>
      </trkpt>
      <trkpt lat="44.79994" lon="5.07271">
        <ele>759.1</ele>
        <time>2024-02-14T09:58:30Z</time>
      </trkpt>
      <trkpt lat="44.79985" lon="5.07274">
        <ele>761.98</ele>
        <time>2024-02-14T09:58:47Z</time>
      </trkpt>
      <trkpt lat="44.79976" lon="5.07279">
        <ele>764.87</ele>
        <time>2024-02-14T09:59:03Z</time>
      </trkpt>
      <trkpt lat="44.79967" lon="5.07284">
        <ele>768.23</ele>
        <time>2024-02-14T09:59:21Z</time>
      </trkpt>
      <trkpt lat="44.79959" lon="5.07287">
        <ele>770.15</ele>
        <time>2024-02-14T09:59:36Z</time>
      </trkpt>
      <trkpt lat="44.79948" lon="5.07289">
        <ele>772.56</ele>
        <time>2024-02-14T09:59:51Z</time>
      </trkpt>
      <trkpt lat="44.79937" lon="5.07289">
        <ele>775.44</ele>
        <time>2024-02-14T10:00:08Z</time>
      </trkpt>
      <trkpt lat="44.79927" lon="5.07292">
        <ele>778.32</ele>
        <time>2024-02-14T10:00:23Z</time>
      </trkpt>
      <trkpt lat="44.7992" lon="5.07294">
        <ele>780.73</ele>
        <time>2024-02-14T10:00:38Z</time>
      </trkpt>
      <trkpt lat="44.79908" lon="5.07294">
        <ele>783.61</ele>
        <time>2024-02-14T10:00:55Z</time>
      </trkpt>
      <trkpt lat="44.79901" lon="5.07298">
        <ele>786.02</ele>
        <time>2024-02-14T10:01:10Z</time>
      </trkpt>
      <trkpt lat="44.79892" lon="5.07301">
        <ele>789.38</ele>
        <time>2024-02-14T10:01:28Z</time>
      </trkpt>
      <trkpt lat="44.79882" lon="5.07304">
        <ele>792.26</ele>
        <time>2024-02-14T10:01:45Z</time>
      </trkpt>
      <trkpt lat="44.79873" lon="5.07306">
        <ele>795.63</ele>
        <time>2024-02-14T10:02:02Z</time>
      </trkpt>
      <trkpt lat="44.79862" lon="5.07305">
        <ele>798.03</ele>
        <time>2024-02-14T10:02:19Z</time>
      </trkpt>
      <trkpt lat="44.79851" lon="5.07307">
        <ele>799.95</ele>
        <time>2024-02-14T10:02:34Z</time>
      </trkpt>
      <trkpt lat="44.79843" lon="5.07306">
        <ele>801.88</ele>
        <time>2024-02-14T10:02:48Z</time>
      </trkpt>
      <trkpt lat="44.79831" lon="5.07305">
        <ele>803.8</ele>
        <time>2024-02-14T10:03:02Z</time>
      </trkpt>
      <trkpt lat="44.79815" lon="5.07303">
        <ele>805.24</ele>
        <time>2024-02-14T10:03:15Z</time>
      </trkpt>
      <trkpt lat="44.79805" lon="5.07299">
        <ele>807.64</ele>
        <time>2024-02-14T10:03:28Z</time>
      </trkpt>
      <trkpt lat="44.79792" lon="5.07284">
        <ele>810.53</ele>
        <time>2024-02-14T10:03:45Z</time>
      </trkpt>
      <trkpt lat="44.79784" lon="5.07274">
        <ele>813.41</ele>
        <time>2024-02-14T10:03:58Z</time>
      </trkpt>
      <trkpt lat="44.79779" lon="5.07264">
        <ele>815.82</ele>
        <time>2024-02-14T10:04:12Z</time>
      </trkpt>
      <trkpt lat="44.79772" lon="5.07254">
        <ele>817.74</ele>
        <time>2024-02-14T10:04:28Z</time>
      </trkpt>
      <trkpt lat="44.79764" lon="5.07247">
        <ele>819.66</ele>
        <time>2024-02-14T10:04:41Z</time>
      </trkpt>
      <trkpt lat="44.79755" lon="5.07245">
        <ele>822.06</ele>
        <time>2024-02-14T10:04:56Z</time>
      </trkpt>
      <trkpt lat="44.79741" lon="5.07235">
        <ele>824.95</ele>
        <time>2024-02-14T10:05:13Z</time>
      </trkpt>
      <trkpt lat="44.79734" lon="5.07226">
        <ele>827.83</ele>
        <time>2024-02-14T10:05:29Z</time>
      </trkpt>
      <trkpt lat="44.79728" lon="5.07222">
        <ele>830.72</ele>
        <time>2024-02-14T10:05:42Z</time>
      </trkpt>
      <trkpt lat="44.7972" lon="5.07219">
        <ele>833.12</ele>
        <time>2024-02-14T10:05:56Z</time>
      </trkpt>
      <trkpt lat="44.79713" lon="5.07216">
        <ele>836</ele>
        <time>2024-02-14T10:06:11Z</time>
      </trkpt>
      <trkpt lat="44.79704" lon="5.07211">
        <ele>837.93</ele>
        <time>2024-02-14T10:06:24Z</time>
      </trkpt>
      <trkpt lat="44.797" lon="5.07208">
        <ele>838.41</ele>
        <time>2024-02-14T10:06:43Z</time>
      </trkpt>
      <trkpt lat="44.79699" lon="5.07226">
        <ele>837.45</ele>
        <time>2024-02-14T10:22:12Z</time>
      </trkpt>
      <trkpt lat="44.797" lon="5.07243">
        <ele>836</ele>
        <time>2024-02-14T10:22:27Z</time>
      </trkpt>
      <trkpt lat="44.79702" lon="5.07258">
        <ele>836</ele>
        <time>2024-02-14T10:22:39Z</time>
      </trkpt>
      <trkpt lat="44.79707" lon="5.07276">
        <ele>836</ele>
        <time>2024-02-14T10:22:53Z</time>
      </trkpt>
      <trkpt lat="44.7971" lon="5.07281">
        <ele>837.45</ele>
        <time>2024-02-14T10:22:58Z</time>
      </trkpt>
      <trkpt lat="44.7971" lon="5.07283">
        <ele>837.45</ele>
        <time>2024-02-14T10:22:59Z</time>
      </trkpt>
      <trkpt lat="44.79716" lon="5.07301">
        <ele>837.93</ele>
        <time>2024-02-14T10:23:13Z</time>
      </trkpt>
      <trkpt lat="44.79723" lon="5.07317">
        <ele>838.41</ele>
        <time>2024-02-14T10:23:26Z</time>
      </trkpt>
      <trkpt lat="44.79725" lon="5.07336">
        <ele>838.89</ele>
        <time>2024-02-14T10:23:41Z</time>
      </trkpt>
      <trkpt lat="44.79732" lon="5.07355">
        <ele>837.45</ele>
        <time>2024-02-14T10:23:56Z</time>
      </trkpt>
      <trkpt lat="44.79735" lon="5.0736">
        <ele>838.89</ele>
        <time>2024-02-14T10:24:00Z</time>
      </trkpt>
      <trkpt lat="44.79743" lon="5.07374">
        <ele>839.85</ele>
        <time>2024-02-14T10:24:13Z</time>
      </trkpt>
      <trkpt lat="44.79753" lon="5.07375">
        <ele>840.81</ele>
        <time>2024-02-14T10:24:30Z</time>
      </trkpt>
      <trkpt lat="44.79755" lon="5.07377">
        <ele>839.37</ele>
        <time>2024-02-14T10:24:34Z</time>
      </trkpt>
      <trkpt lat="44.79766" lon="5.07395">
        <ele>838.41</ele>
        <time>2024-02-14T10:24:50Z</time>
      </trkpt>
      <trkpt lat="44.7977" lon="5.07413">
        <ele>836.96</ele>
        <time>2024-02-14T10:25:05Z</time>
      </trkpt>
      <trkpt lat="44.79775" lon="5.07427">
        <ele>837.93</ele>
        <time>2024-02-14T10:25:17Z</time>
      </trkpt>
      <trkpt lat="44.79785" lon="5.07434">
        <ele>840.33</ele>
        <time>2024-02-14T10:25:31Z</time>
      </trkpt>
      <trkpt lat="44.79801" lon="5.07437">
        <ele>842.73</ele>
        <time>2024-02-14T10:25:47Z</time>
      </trkpt>
      <trkpt lat="44.79802" lon="5.07437">
        <ele>842.73</ele>
        <time>2024-02-14T10:25:48Z</time>
      </trkpt>
      <trkpt lat="44.7981" lon="5.07438">
        <ele>843.21</ele>
        <time>2024-02-14T10:26:00Z</time>
      </trkpt>
      <trkpt lat="44.7981" lon="5.07438">
        <ele>843.21</ele>
        <time>2024-02-14T10:26:25Z</time>
      </trkpt>
      <trkpt lat="44.79819" lon="5.07437">
        <ele>843.69</ele>
        <time>2024-02-14T10:26:43Z</time>
      </trkpt>
      <trkpt lat="44.7983" lon="5.07433">
        <ele>844.66</ele>
        <time>2024-02-14T10:26:56Z</time>
      </trkpt>
      <trkpt lat="44.79844" lon="5.07426">
        <ele>846.1</ele>
        <time>2024-02-14T10:27:11Z</time>
      </trkpt>
      <trkpt lat="44.79846" lon="5.07424">
        <ele>846.58</ele>
        <time>2024-02-14T10:27:14Z</time>
      </trkpt>
      <trkpt lat="44.79868" lon="5.0742">
        <ele>848.98</ele>
        <time>2024-02-14T10:27:34Z</time>
      </trkpt>
      <trkpt lat="44.79876" lon="5.07415">
        <ele>851.38</ele>
        <time>2024-02-14T10:27:46Z</time>
      </trkpt>
      <trkpt lat="44.79887" lon="5.07417">
        <ele>852.83</ele>
        <time>2024-02-14T10:27:58Z</time>
      </trkpt>
      <trkpt lat="44.7989" lon="5.07418">
        <ele>852.83</ele>
        <time>2024-02-14T10:28:01Z</time>
      </trkpt>
      <trkpt lat="44.79908" lon="5.07419">
        <ele>857.15</ele>
        <time>2024-02-14T10:28:30Z</time>
      </trkpt>
      <trkpt lat="44.79912" lon="5.07421">
        <ele>858.11</ele>
        <time>2024-02-14T10:28:45Z</time>
      </trkpt>
      <trkpt lat="44.79921" lon="5.07426">
        <ele>861</ele>
        <time>2024-02-14T10:28:59Z</time>
      </trkpt>
      <trkpt lat="44.79927" lon="5.0743">
        <ele>864.36</ele>
        <time>2024-02-14T10:29:11Z</time>
      </trkpt>
      <trkpt lat="44.79932" lon="5.07434">
        <ele>865.32</ele>
        <time>2024-02-14T10:29:25Z</time>
      </trkpt>
      <trkpt lat="44.79942" lon="5.07436">
        <ele>868.69</ele>
        <time>2024-02-14T10:29:41Z</time>
      </trkpt>
      <trkpt lat="44.79954" lon="5.0744">
        <ele>870.61</ele>
        <time>2024-02-14T10:29:57Z</time>
      </trkpt>
      <trkpt lat="44.7996" lon="5.07452">
        <ele>872.53</ele>
        <time>2024-02-14T10:30:11Z</time>
      </trkpt>
      <trkpt lat="44.79967" lon="5.07462">
        <ele>874.94</ele>
        <time>2024-02-14T10:30:27Z</time>
      </trkpt>
      <trkpt lat="44.79976" lon="5.07468">
        <ele>876.86</ele>
        <time>2024-02-14T10:30:39Z</time>
      </trkpt>
      <trkpt lat="44.79984" lon="5.07479">
        <ele>879.74</ele>
        <time>2024-02-14T10:30:54Z</time>
      </trkpt>
      <trkpt lat="44.79992" lon="5.07492">
        <ele>881.67</ele>
        <time>2024-02-14T10:31:10Z</time>
      </trkpt>
      <trkpt lat="44.80001" lon="5.075">
        <ele>883.11</ele>
        <time>2024-02-14T10:31:24Z</time>
      </trkpt>
      <trkpt lat="44.80008" lon="5.07509">
        <ele>885.51</ele>
        <time>2024-02-14T10:31:40Z</time>
      </trkpt>
      <trkpt lat="44.80015" lon="5.07512">
        <ele>888.4</ele>
        <time>2024-02-14T10:31:52Z</time>
      </trkpt>
      <trkpt lat="44.80023" lon="5.07516">
        <ele>891.28</ele>
        <time>2024-02-14T10:32:10Z</time>
      </trkpt>
      <trkpt lat="44.80032" lon="5.07518">
        <ele>894.16</ele>
        <time>2024-02-14T10:32:27Z</time>
      </trkpt>
      <trkpt lat="44.8004" lon="5.0752">
        <ele>897.05</ele>
        <time>2024-02-14T10:32:38Z</time>
      </trkpt>
      <trkpt lat="44.80051" lon="5.07522">
        <ele>898.97</ele>
        <time>2024-02-14T10:32:54Z</time>
      </trkpt>
      <trkpt lat="44.80051" lon="5.07522">
        <ele>898.97</ele>
        <time>2024-02-14T10:32:55Z</time>
      </trkpt>
      <trkpt lat="44.8006" lon="5.07524">
        <ele>900.89</ele>
        <time>2024-02-14T10:33:10Z</time>
      </trkpt>
      <trkpt lat="44.80074" lon="5.07525">
        <ele>902.33</ele>
        <time>2024-02-14T10:33:26Z</time>
      </trkpt>
      <trkpt lat="44.80087" lon="5.07529">
        <ele>903.78</ele>
        <time>2024-02-14T10:33:40Z</time>
      </trkpt>
      <trkpt lat="44.80097" lon="5.07535">
        <ele>905.22</ele>
        <time>2024-02-14T10:33:54Z</time>
      </trkpt>
      <trkpt lat="44.80102" lon="5.07535">
        <ele>906.18</ele>
        <time>2024-02-14T10:34:01Z</time>
      </trkpt>
      <trkpt lat="44.80108" lon="5.07536">
        <ele>907.14</ele>
        <time>2024-02-14T10:34:08Z</time>
      </trkpt>
      <trkpt lat="44.80119" lon="5.07539">
        <ele>909.06</ele>
        <time>2024-02-14T10:34:20Z</time>
      </trkpt>
      <trkpt lat="44.80129" lon="5.07541">
        <ele>911.47</ele>
        <time>2024-02-14T10:34:37Z</time>
      </trkpt>
      <trkpt lat="44.80136" lon="5.07536">
        <ele>914.35</ele>
        <time>2024-02-14T10:34:50Z</time>
      </trkpt>
      <trkpt lat="44.80147" lon="5.07536">
        <ele>917.24</ele>
        <time>2024-02-14T10:35:06Z</time>
      </trkpt>
      <trkpt lat="44.80153" lon="5.07532">
        <ele>919.64</ele>
        <time>2024-02-14T10:35:19Z</time>
      </trkpt>
      <trkpt lat="44.80164" lon="5.07538">
        <ele>922.04</ele>
        <time>2024-02-14T10:35:34Z</time>
      </trkpt>
      <trkpt lat="44.80172" lon="5.07539">
        <ele>923.96</ele>
        <time>2024-02-14T10:35:49Z</time>
      </trkpt>
      <trkpt lat="44.80179" lon="5.07531">
        <ele>927.33</ele>
        <time>2024-02-14T10:36:04Z</time>
      </trkpt>
      <trkpt lat="44.80188" lon="5.07532">
        <ele>930.69</ele>
        <time>2024-02-14T10:36:20Z</time>
      </trkpt>
      <trkpt lat="44.802" lon="5.07532">
        <ele>932.62</ele>
        <time>2024-02-14T10:36:37Z</time>
      </trkpt>
      <trkpt lat="44.80212" lon="5.07537">
        <ele>934.06</ele>
        <time>2024-02-14T10:36:52Z</time>
      </trkpt>
      <trkpt lat="44.80215" lon="5.07541">
        <ele>935.02</ele>
        <time>2024-02-14T10:39:25Z</time>
      </trkpt>
      <trkpt lat="44.80222" lon="5.07543">
        <ele>935.98</ele>
        <time>2024-02-14T10:39:43Z</time>
      </trkpt>
      <trkpt lat="44.80225" lon="5.07544">
        <ele>936.46</ele>
        <time>2024-02-14T10:39:47Z</time>
      </trkpt>
      <trkpt lat="44.80236" lon="5.07551">
        <ele>936.46</ele>
        <time>2024-02-14T10:40:01Z</time>
      </trkpt>
      <trkpt lat="44.80246" lon="5.07551">
        <ele>938.38</ele>
        <time>2024-02-14T10:40:14Z</time>
      </trkpt>
      <trkpt lat="44.80253" lon="5.07551">
        <ele>938.86</ele>
        <time>2024-02-14T10:40:21Z</time>
      </trkpt>
      <trkpt lat="44.80257" lon="5.07554">
        <ele>939.35</ele>
        <time>2024-02-14T10:40:25Z</time>
      </trkpt>
      <trkpt lat="44.8027" lon="5.07556">
        <ele>939.83</ele>
        <time>2024-02-14T10:40:41Z</time>
      </trkpt>
      <trkpt lat="44.80279" lon="5.0756">
        <ele>939.83</ele>
        <time>2024-02-14T10:40:54Z</time>
      </trkpt>
      <trkpt lat="44.8029" lon="5.07569">
        <ele>941.27</ele>
        <time>2024-02-14T10:41:09Z</time>
      </trkpt>
      <trkpt lat="44.80302" lon="5.07577">
        <ele>942.71</ele>
        <time>2024-02-14T10:41:24Z</time>
      </trkpt>
      <trkpt lat="44.80313" lon="5.07573">
        <ele>945.59</ele>
        <time>2024-02-14T10:41:39Z</time>
      </trkpt>
      <trkpt lat="44.80322" lon="5.07574">
        <ele>946.56</ele>
        <time>2024-02-14T10:41:52Z</time>
      </trkpt>
      <trkpt lat="44.80337" lon="5.07576">
        <ele>948</ele>
        <time>2024-02-14T10:42:08Z</time>
      </trkpt>
      <trkpt lat="44.80349" lon="5.0758">
        <ele>948.96</ele>
        <time>2024-02-14T10:42:21Z</time>
      </trkpt>
      <trkpt lat="44.80358" lon="5.07582">
        <ele>949.44</ele>
        <time>2024-02-14T10:42:31Z</time>
      </trkpt>
      <trkpt lat="44.80372" lon="5.07584">
        <ele>950.4</ele>
        <time>2024-02-14T10:42:47Z</time>
      </trkpt>
      <trkpt lat="44.80374" lon="5.07583">
        <ele>950.88</ele>
        <time>2024-02-14T10:42:49Z</time>
      </trkpt>
      <trkpt lat="44.80385" lon="5.07575">
        <ele>953.77</ele>
        <time>2024-02-14T10:43:05Z</time>
      </trkpt>
      <trkpt lat="44.80388" lon="5.07574">
        <ele>953.77</ele>
        <time>2024-02-14T10:43:20Z</time>
      </trkpt>
      <trkpt lat="44.80386" lon="5.07582">
        <ele>953.77</ele>
        <time>2024-02-14T10:43:41Z</time>
      </trkpt>
      <trkpt lat="44.80391" lon="5.07592">
        <ele>951.84</ele>
        <time>2024-02-14T10:43:55Z</time>
      </trkpt>
      <trkpt lat="44.80402" lon="5.07599">
        <ele>951.36</ele>
        <time>2024-02-14T10:44:09Z</time>
      </trkpt>
      <trkpt lat="44.8041" lon="5.07598">
        <ele>952.8</ele>
        <time>2024-02-14T10:44:24Z</time>
      </trkpt>
      <trkpt lat="44.8042" lon="5.07598">
        <ele>954.73</ele>
        <time>2024-02-14T10:44:41Z</time>
      </trkpt>
      <trkpt lat="44.80432" lon="5.076">
        <ele>954.73</ele>
        <time>2024-02-14T10:44:55Z</time>
      </trkpt>
      <trkpt lat="44.80444" lon="5.07606">
        <ele>955.69</ele>
        <time>2024-02-14T10:45:08Z</time>
      </trkpt>
      <trkpt lat="44.80457" lon="5.07613">
        <ele>954.73</ele>
        <time>2024-02-14T10:45:24Z</time>
      </trkpt>
      <trkpt lat="44.80463" lon="5.07614">
        <ele>955.69</ele>
        <time>2024-02-14T10:45:30Z</time>
      </trkpt>
      <trkpt lat="44.8048" lon="5.07615">
        <ele>957.61</ele>
        <time>2024-02-14T10:45:47Z</time>
      </trkpt>
      <trkpt lat="44.80487" lon="5.07617">
        <ele>958.09</ele>
        <time>2024-02-14T10:45:53Z</time>
      </trkpt>
      <trkpt lat="44.805" lon="5.07611">
        <ele>960.01</ele>
        <time>2024-02-14T10:46:07Z</time>
      </trkpt>
      <trkpt lat="44.80513" lon="5.07611">
        <ele>961.46</ele>
        <time>2024-02-14T10:46:23Z</time>
      </trkpt>
      <trkpt lat="44.80524" lon="5.07607">
        <ele>963.38</ele>
        <time>2024-02-14T10:46:37Z</time>
      </trkpt>
      <trkpt lat="44.80531" lon="5.07604">
        <ele>964.82</ele>
        <time>2024-02-14T10:46:47Z</time>
      </trkpt>
      <trkpt lat="44.80539" lon="5.07605">
        <ele>965.3</ele>
        <time>2024-02-14T10:46:56Z</time>
      </trkpt>
      <trkpt lat="44.80545" lon="5.07604">
        <ele>966.26</ele>
        <time>2024-02-14T10:47:02Z</time>
      </trkpt>
      <trkpt lat="44.80559" lon="5.07597">
        <ele>966.26</ele>
        <time>2024-02-14T10:47:18Z</time>
      </trkpt>
      <trkpt lat="44.80573" lon="5.07595">
        <ele>966.26</ele>
        <time>2024-02-14T10:47:33Z</time>
      </trkpt>
      <trkpt lat="44.80576" lon="5.07597">
        <ele>964.82</ele>
        <time>2024-02-14T10:47:37Z</time>
      </trkpt>
      <trkpt lat="44.8059" lon="5.076">
        <ele>962.42</ele>
        <time>2024-02-14T10:47:50Z</time>
      </trkpt>
      <trkpt lat="44.80604" lon="5.07592">
        <ele>960.49</ele>
        <time>2024-02-14T10:48:04Z</time>
      </trkpt>
      <trkpt lat="44.80621" lon="5.07583">
        <ele>959.05</ele>
        <time>2024-02-14T10:48:19Z</time>
      </trkpt>
      <trkpt lat="44.80624" lon="5.0758">
        <ele>958.57</ele>
        <time>2024-02-14T10:48:22Z</time>
      </trkpt>
      <trkpt lat="44.80631" lon="5.07579">
        <ele>958.57</ele>
        <time>2024-02-14T10:48:28Z</time>
      </trkpt>
      <trkpt lat="44.8064" lon="5.07574">
        <ele>958.09</ele>
        <time>2024-02-14T10:48:38Z</time>
      </trkpt>
      <trkpt lat="44.80653" lon="5.07575">
        <ele>956.65</ele>
        <time>2024-02-14T10:48:53Z</time>
      </trkpt>
      <trkpt lat="44.80655" lon="5.07575">
        <ele>956.17</ele>
        <time>2024-02-14T10:48:55Z</time>
      </trkpt>
      <trkpt lat="44.80671" lon="5.0757">
        <ele>955.21</ele>
        <time>2024-02-14T10:49:10Z</time>
      </trkpt>
      <trkpt lat="44.80686" lon="5.0757">
        <ele>953.77</ele>
        <time>2024-02-14T10:49:26Z</time>
      </trkpt>
      <trkpt lat="44.80702" lon="5.07569">
        <ele>951.84</ele>
        <time>2024-02-14T10:49:42Z</time>
      </trkpt>
      <trkpt lat="44.80722" lon="5.07566">
        <ele>951.84</ele>
        <time>2024-02-14T10:50:00Z</time>
      </trkpt>
      <trkpt lat="44.80736" lon="5.07568">
        <ele>951.84</ele>
        <time>2024-02-14T10:50:13Z</time>
      </trkpt>
      <trkpt lat="44.8074" lon="5.07571">
        <ele>951.84</ele>
        <time>2024-02-14T10:50:27Z</time>
      </trkpt>
      <trkpt lat="44.80745" lon="5.07569">
        <ele>953.77</ele>
        <time>2024-02-14T10:57:00Z</time>
      </trkpt>
      <trkpt lat="44.80757" lon="5.07569">
        <ele>955.69</ele>
        <time>2024-02-14T10:57:15Z</time>
      </trkpt>
      <trkpt lat="44.8076" lon="5.07569">
        <ele>955.69</ele>
        <time>2024-02-14T10:57:18Z</time>
      </trkpt>
      <trkpt lat="44.80769" lon="5.07563">
        <ele>958.57</ele>
        <time>2024-02-14T10:57:33Z</time>
      </trkpt>
      <trkpt lat="44.80776" lon="5.07565">
        <ele>960.01</ele>
        <time>2024-02-14T10:57:43Z</time>
      </trkpt>
      <trkpt lat="44.80786" lon="5.07568">
        <ele>962.42</ele>
        <time>2024-02-14T10:58:00Z</time>
      </trkpt>
      <trkpt lat="44.80797" lon="5.07569">
        <ele>965.78</ele>
        <time>2024-02-14T10:58:17Z</time>
      </trkpt>
      <trkpt lat="44.80806" lon="5.07573">
        <ele>968.67</ele>
        <time>2024-02-14T10:58:32Z</time>
      </trkpt>
      <trkpt lat="44.80817" lon="5.07579">
        <ele>971.07</ele>
        <time>2024-02-14T10:58:48Z</time>
      </trkpt>
      <trkpt lat="44.80825" lon="5.07577">
        <ele>973.95</ele>
        <time>2024-02-14T10:59:03Z</time>
      </trkpt>
      <trkpt lat="44.80835" lon="5.07568">
        <ele>977.32</ele>
        <time>2024-02-14T10:59:20Z</time>
      </trkpt>
      <trkpt lat="44.80843" lon="5.07565">
        <ele>979.72</ele>
        <time>2024-02-14T10:59:34Z</time>
      </trkpt>
      <trkpt lat="44.80851" lon="5.07562">
        <ele>983.09</ele>
        <time>2024-02-14T10:59:50Z</time>
      </trkpt>
      <trkpt lat="44.80862" lon="5.07564">
        <ele>984.05</ele>
        <time>2024-02-14T11:00:06Z</time>
      </trkpt>
      <trkpt lat="44.80866" lon="5.07562">
        <ele>985.01</ele>
        <time>2024-02-14T11:00:11Z</time>
      </trkpt>
      <trkpt lat="44.80877" lon="5.0757">
        <ele>984.05</ele>
        <time>2024-02-14T11:00:25Z</time>
      </trkpt>
      <trkpt lat="44.80882" lon="5.07564">
        <ele>985.49</ele>
        <time>2024-02-14T11:00:35Z</time>
      </trkpt>
      <trkpt lat="44.80887" lon="5.07557">
        <ele>988.37</ele>
        <time>2024-02-14T11:00:49Z</time>
      </trkpt>
      <trkpt lat="44.80894" lon="5.07558">
        <ele>989.33</ele>
        <time>2024-02-14T11:01:04Z</time>
      </trkpt>
      <trkpt lat="44.80903" lon="5.07565">
        <ele>989.33</ele>
        <time>2024-02-14T11:01:18Z</time>
      </trkpt>
      <trkpt lat="44.80907" lon="5.07557">
        <ele>990.3</ele>
        <time>2024-02-14T11:01:32Z</time>
      </trkpt>
      <trkpt lat="44.80915" lon="5.07559">
        <ele>991.26</ele>
        <time>2024-02-14T11:01:48Z</time>
      </trkpt>
      <trkpt lat="44.8092" lon="5.07562">
        <ele>989.81</ele>
        <time>2024-02-14T11:01:56Z</time>
      </trkpt>
      <trkpt lat="44.80933" lon="5.07569">
        <ele>988.85</ele>
        <time>2024-02-14T11:02:11Z</time>
      </trkpt>
      <trkpt lat="44.80943" lon="5.07571">
        <ele>986.93</ele>
        <time>2024-02-14T11:02:23Z</time>
      </trkpt>
      <trkpt lat="44.80947" lon="5.07568">
        <ele>986.93</ele>
        <time>2024-02-14T11:02:27Z</time>
      </trkpt>
      <trkpt lat="44.80954" lon="5.07567">
        <ele>986.93</ele>
        <time>2024-02-14T11:02:32Z</time>
      </trkpt>
      <trkpt lat="44.80961" lon="5.0757">
        <ele>986.93</ele>
        <time>2024-02-14T11:02:38Z</time>
      </trkpt>
      <trkpt lat="44.80967" lon="5.07567">
        <ele>986.93</ele>
        <time>2024-02-14T11:02:44Z</time>
      </trkpt>
      <trkpt lat="44.80968" lon="5.07565">
        <ele>986.93</ele>
        <time>2024-02-14T11:02:46Z</time>
      </trkpt>
      <trkpt lat="44.80981" lon="5.07561">
        <ele>986.93</ele>
        <time>2024-02-14T11:03:00Z</time>
      </trkpt>
      <trkpt lat="44.80981" lon="5.07561">
        <ele>986.93</ele>
        <time>2024-02-14T11:03:01Z</time>
      </trkpt>
      <trkpt lat="44.80994" lon="5.07555">
        <ele>985.97</ele>
        <time>2024-02-14T11:03:15Z</time>
      </trkpt>
      <trkpt lat="44.81001" lon="5.07545">
        <ele>987.41</ele>
        <time>2024-02-14T11:03:26Z</time>
      </trkpt>
      <trkpt lat="44.81007" lon="5.07542">
        <ele>988.85</ele>
        <time>2024-02-14T11:03:44Z</time>
      </trkpt>
      <trkpt lat="44.81008" lon="5.07542">
        <ele>988.85</ele>
        <time>2024-02-14T11:04:04Z</time>
      </trkpt>
      <trkpt lat="44.81015" lon="5.07542">
        <ele>989.81</ele>
        <time>2024-02-14T11:11:20Z</time>
      </trkpt>
      <trkpt lat="44.81027" lon="5.07541">
        <ele>988.37</ele>
        <time>2024-02-14T11:11:36Z</time>
      </trkpt>
      <trkpt lat="44.81036" lon="5.07541">
        <ele>988.37</ele>
        <time>2024-02-14T11:11:48Z</time>
      </trkpt>
      <trkpt lat="44.81039" lon="5.07542">
        <ele>987.89</ele>
        <time>2024-02-14T11:11:52Z</time>
      </trkpt>
      <trkpt lat="44.81048" lon="5.07532">
        <ele>991.26</ele>
        <time>2024-02-14T12:26:41Z</time>
      </trkpt>
      <trkpt lat="44.81061" lon="5.07531">
        <ele>989.33</ele>
        <time>2024-02-14T12:26:57Z</time>
      </trkpt>
      <trkpt lat="44.81076" lon="5.07524">
        <ele>986.93</ele>
        <time>2024-02-14T12:27:15Z</time>
      </trkpt>
      <trkpt lat="44.8109" lon="5.07517">
        <ele>985.49</ele>
        <time>2024-02-14T12:27:29Z</time>
      </trkpt>
      <trkpt lat="44.81106" lon="5.07511">
        <ele>982.6</ele>
        <time>2024-02-14T12:27:43Z</time>
      </trkpt>
      <trkpt lat="44.81118" lon="5.07505">
        <ele>980.68</ele>
        <time>2024-02-14T12:27:57Z</time>
      </trkpt>
      <trkpt lat="44.81121" lon="5.07502">
        <ele>980.68</ele>
        <time>2024-02-14T12:28:13Z</time>
      </trkpt>
      <trkpt lat="44.81132" lon="5.0749">
        <ele>980.68</ele>
        <time>2024-02-14T12:28:27Z</time>
      </trkpt>
      <trkpt lat="44.8114" lon="5.0748">
        <ele>980.68</ele>
        <time>2024-02-14T12:28:39Z</time>
      </trkpt>
      <trkpt lat="44.81148" lon="5.07471">
        <ele>983.09</ele>
        <time>2024-02-14T12:28:53Z</time>
      </trkpt>
      <trkpt lat="44.81158" lon="5.07469">
        <ele>983.57</ele>
        <time>2024-02-14T12:29:07Z</time>
      </trkpt>
      <trkpt lat="44.81166" lon="5.07461">
        <ele>985.49</ele>
        <time>2024-02-14T12:29:22Z</time>
      </trkpt>
      <trkpt lat="44.8117" lon="5.07452">
        <ele>987.89</ele>
        <time>2024-02-14T12:29:37Z</time>
      </trkpt>
      <trkpt lat="44.81176" lon="5.07448">
        <ele>988.85</ele>
        <time>2024-02-14T12:29:50Z</time>
      </trkpt>
      <trkpt lat="44.8118" lon="5.07449">
        <ele>987.41</ele>
        <time>2024-02-14T12:30:00Z</time>
      </trkpt>
      <trkpt lat="44.81187" lon="5.07453">
        <ele>986.93</ele>
        <time>2024-02-14T12:30:13Z</time>
      </trkpt>
      <trkpt lat="44.81199" lon="5.07453">
        <ele>986.45</ele>
        <time>2024-02-14T12:30:28Z</time>
      </trkpt>
      <trkpt lat="44.81212" lon="5.07453">
        <ele>987.89</ele>
        <time>2024-02-14T12:30:41Z</time>
      </trkpt>
      <trkpt lat="44.81222" lon="5.07459">
        <ele>988.85</ele>
        <time>2024-02-14T12:30:55Z</time>
      </trkpt>
      <trkpt lat="44.81226" lon="5.07457">
        <ele>988.85</ele>
        <time>2024-02-14T12:31:18Z</time>
      </trkpt>
      <trkpt lat="44.81237" lon="5.07457">
        <ele>991.26</ele>
        <time>2024-02-14T12:31:36Z</time>
      </trkpt>
      <trkpt lat="44.81247" lon="5.07455">
        <ele>994.62</ele>
        <time>2024-02-14T12:31:50Z</time>
      </trkpt>
      <trkpt lat="44.8126" lon="5.07451">
        <ele>996.54</ele>
        <time>2024-02-14T12:32:04Z</time>
      </trkpt>
      <trkpt lat="44.81273" lon="5.07449">
        <ele>998.47</ele>
        <time>2024-02-14T12:32:19Z</time>
      </trkpt>
      <trkpt lat="44.81278" lon="5.0745">
        <ele>998.95</ele>
        <time>2024-02-14T12:32:24Z</time>
      </trkpt>
      <trkpt lat="44.81287" lon="5.07453">
        <ele>998.95</ele>
        <time>2024-02-14T12:32:31Z</time>
      </trkpt>
      <trkpt lat="44.81298" lon="5.07455">
        <ele>997.51</ele>
        <time>2024-02-14T12:32:46Z</time>
      </trkpt>
      <trkpt lat="44.81299" lon="5.07456">
        <ele>997.51</ele>
        <time>2024-02-14T12:32:47Z</time>
      </trkpt>
      <trkpt lat="44.81308" lon="5.07449">
        <ele>997.51</ele>
        <time>2024-02-14T12:33:02Z</time>
      </trkpt>
      <trkpt lat="44.81321" lon="5.07448">
        <ele>998.95</ele>
        <time>2024-02-14T12:33:17Z</time>
      </trkpt>
      <trkpt lat="44.81332" lon="5.07455">
        <ele>1000.39</ele>
        <time>2024-02-14T12:33:31Z</time>
      </trkpt>
      <trkpt lat="44.81348" lon="5.07455">
        <ele>1002.31</ele>
        <time>2024-02-14T12:33:45Z</time>
      </trkpt>
      <trkpt lat="44.81358" lon="5.07453">
        <ele>1002.79</ele>
        <time>2024-02-14T12:33:58Z</time>
      </trkpt>
      <trkpt lat="44.81371" lon="5.07448">
        <ele>1005.2</ele>
        <time>2024-02-14T12:34:15Z</time>
      </trkpt>
      <trkpt lat="44.81381" lon="5.07443">
        <ele>1006.64</ele>
        <time>2024-02-14T12:34:28Z</time>
      </trkpt>
      <trkpt lat="44.81393" lon="5.07435">
        <ele>1008.08</ele>
        <time>2024-02-14T12:34:43Z</time>
      </trkpt>
      <trkpt lat="44.81406" lon="5.07435">
        <ele>1009.04</ele>
        <time>2024-02-14T12:34:58Z</time>
      </trkpt>
      <trkpt lat="44.81413" lon="5.07435">
        <ele>1007.6</ele>
        <time>2024-02-14T12:35:09Z</time>
      </trkpt>
      <trkpt lat="44.81423" lon="5.07427">
        <ele>1009.04</ele>
        <time>2024-02-14T12:35:24Z</time>
      </trkpt>
      <trkpt lat="44.81431" lon="5.07421">
        <ele>1007.6</ele>
        <time>2024-02-14T12:35:36Z</time>
      </trkpt>
      <trkpt lat="44.81441" lon="5.07416">
        <ele>1006.64</ele>
        <time>2024-02-14T12:35:50Z</time>
      </trkpt>
      <trkpt lat="44.81452" lon="5.07413">
        <ele>1004.72</ele>
        <time>2024-02-14T12:36:04Z</time>
      </trkpt>
      <trkpt lat="44.81458" lon="5.07412">
        <ele>1003.27</ele>
        <time>2024-02-14T12:36:16Z</time>
      </trkpt>
      <trkpt lat="44.81466" lon="5.07414">
        <ele>999.91</ele>
        <time>2024-02-14T12:36:27Z</time>
      </trkpt>
      <trkpt lat="44.81476" lon="5.07415">
        <ele>996.54</ele>
        <time>2024-02-14T12:36:39Z</time>
      </trkpt>
      <trkpt lat="44.81485" lon="5.07405">
        <ele>996.06</ele>
        <time>2024-02-14T12:36:52Z</time>
      </trkpt>
      <trkpt lat="44.8149" lon="5.07404">
        <ele>994.62</ele>
        <time>2024-02-14T12:37:07Z</time>
      </trkpt>
      <trkpt lat="44.81493" lon="5.07401">
        <ele>994.14</ele>
        <time>2024-02-14T12:37:24Z</time>
      </trkpt>
      <trkpt lat="44.81502" lon="5.07397">
        <ele>991.74</ele>
        <time>2024-02-14T12:37:37Z</time>
      </trkpt>
      <trkpt lat="44.81514" lon="5.07397">
        <ele>988.37</ele>
        <time>2024-02-14T12:37:50Z</time>
      </trkpt>
      <trkpt lat="44.81526" lon="5.07396">
        <ele>985.49</ele>
        <time>2024-02-14T12:38:03Z</time>
      </trkpt>
      <trkpt lat="44.81539" lon="5.0739">
        <ele>983.09</ele>
        <time>2024-02-14T12:38:17Z</time>
      </trkpt>
      <trkpt lat="44.81541" lon="5.07387">
        <ele>983.09</ele>
        <time>2024-02-14T12:38:30Z</time>
      </trkpt>
      <trkpt lat="44.81544" lon="5.07384">
        <ele>983.57</ele>
        <time>2024-02-14T12:40:11Z</time>
      </trkpt>
      <trkpt lat="44.81554" lon="5.07381">
        <ele>981.16</ele>
        <time>2024-02-14T12:40:25Z</time>
      </trkpt>
      <trkpt lat="44.81569" lon="5.07379">
        <ele>979.72</ele>
        <time>2024-02-14T12:40:40Z</time>
      </trkpt>
      <trkpt lat="44.81571" lon="5.07377">
        <ele>979.72</ele>
        <time>2024-02-14T12:40:43Z</time>
      </trkpt>
      <trkpt lat="44.81576" lon="5.07377">
        <ele>979.72</ele>
        <time>2024-02-14T12:40:48Z</time>
      </trkpt>
      <trkpt lat="44.81584" lon="5.07378">
        <ele>981.64</ele>
        <time>2024-02-14T12:41:03Z</time>
      </trkpt>
      <trkpt lat="44.8159" lon="5.07375">
        <ele>982.12</ele>
        <time>2024-02-14T12:41:32Z</time>
      </trkpt>
      <trkpt lat="44.81601" lon="5.07377">
        <ele>983.57</ele>
        <time>2024-02-14T12:41:47Z</time>
      </trkpt>
      <trkpt lat="44.81607" lon="5.07378">
        <ele>984.53</ele>
        <time>2024-02-14T12:41:55Z</time>
      </trkpt>
      <trkpt lat="44.8162" lon="5.07376">
        <ele>987.41</ele>
        <time>2024-02-14T12:42:10Z</time>
      </trkpt>
      <trkpt lat="44.81631" lon="5.07373">
        <ele>989.33</ele>
        <time>2024-02-14T12:42:24Z</time>
      </trkpt>
      <trkpt lat="44.81644" lon="5.0737">
        <ele>991.74</ele>
        <time>2024-02-14T12:42:39Z</time>
      </trkpt>
      <trkpt lat="44.81655" lon="5.07372">
        <ele>993.18</ele>
        <time>2024-02-14T12:42:53Z</time>
      </trkpt>
      <trkpt lat="44.81664" lon="5.07375">
        <ele>995.58</ele>
        <time>2024-02-14T12:43:06Z</time>
      </trkpt>
      <trkpt lat="44.81667" lon="5.07374">
        <ele>996.54</ele>
        <time>2024-02-14T12:43:10Z</time>
      </trkpt>
      <trkpt lat="44.81678" lon="5.0737">
        <ele>998.95</ele>
        <time>2024-02-14T12:43:25Z</time>
      </trkpt>
      <trkpt lat="44.81689" lon="5.07368">
        <ele>999.91</ele>
        <time>2024-02-14T12:43:39Z</time>
      </trkpt>
      <trkpt lat="44.81702" lon="5.07364">
        <ele>1000.87</ele>
        <time>2024-02-14T12:43:54Z</time>
      </trkpt>
      <trkpt lat="44.81704" lon="5.07365">
        <ele>1000.87</ele>
        <time>2024-02-14T12:43:56Z</time>
      </trkpt>
      <trkpt lat="44.81716" lon="5.07372">
        <ele>999.43</ele>
        <time>2024-02-14T12:44:16Z</time>
      </trkpt>
      <trkpt lat="44.81722" lon="5.07374">
        <ele>997.99</ele>
        <time>2024-02-14T12:44:25Z</time>
      </trkpt>
      <trkpt lat="44.81727" lon="5.07374">
        <ele>997.51</ele>
        <time>2024-02-14T12:44:31Z</time>
      </trkpt>
      <trkpt lat="44.81743" lon="5.07381">
        <ele>994.14</ele>
        <time>2024-02-14T12:44:49Z</time>
      </trkpt>
      <trkpt lat="44.81746" lon="5.07391">
        <ele>991.74</ele>
        <time>2024-02-14T12:45:04Z</time>
      </trkpt>
      <trkpt lat="44.81755" lon="5.07396">
        <ele>988.85</ele>
        <time>2024-02-14T12:45:18Z</time>
      </trkpt>
      <trkpt lat="44.81758" lon="5.07394">
        <ele>988.85</ele>
        <time>2024-02-14T12:45:22Z</time>
      </trkpt>
      <trkpt lat="44.81769" lon="5.07396">
        <ele>986.45</ele>
        <time>2024-02-14T12:45:33Z</time>
      </trkpt>
      <trkpt lat="44.81786" lon="5.07394">
        <ele>984.05</ele>
        <time>2024-02-14T12:45:50Z</time>
      </trkpt>
      <trkpt lat="44.818" lon="5.07396">
        <ele>981.16</ele>
        <time>2024-02-14T12:46:07Z</time>
      </trkpt>
      <trkpt lat="44.81808" lon="5.0739">
        <ele>981.16</ele>
        <time>2024-02-14T12:46:20Z</time>
      </trkpt>
      <trkpt lat="44.8182" lon="5.07389">
        <ele>979.24</ele>
        <time>2024-02-14T12:46:34Z</time>
      </trkpt>
      <trkpt lat="44.8183" lon="5.0739">
        <ele>976.84</ele>
        <time>2024-02-14T12:46:49Z</time>
      </trkpt>
      <trkpt lat="44.81833" lon="5.07391">
        <ele>974.91</ele>
        <time>2024-02-14T12:47:04Z</time>
      </trkpt>
      <trkpt lat="44.81839" lon="5.07395">
        <ele>973.47</ele>
        <time>2024-02-14T12:47:20Z</time>
      </trkpt>
      <trkpt lat="44.81847" lon="5.07393">
        <ele>972.03</ele>
        <time>2024-02-14T12:47:36Z</time>
      </trkpt>
      <trkpt lat="44.81854" lon="5.07395">
        <ele>969.15</ele>
        <time>2024-02-14T12:47:50Z</time>
      </trkpt>
      <trkpt lat="44.81861" lon="5.07401">
        <ele>966.74</ele>
        <time>2024-02-14T12:48:05Z</time>
      </trkpt>
      <trkpt lat="44.81864" lon="5.0741">
        <ele>965.3</ele>
        <time>2024-02-14T12:48:19Z</time>
      </trkpt>
      <trkpt lat="44.8187" lon="5.0741">
        <ele>963.86</ele>
        <time>2024-02-14T12:48:33Z</time>
      </trkpt>
      <trkpt lat="44.81879" lon="5.07418">
        <ele>960.98</ele>
        <time>2024-02-14T12:48:49Z</time>
      </trkpt>
      <trkpt lat="44.81882" lon="5.07419">
        <ele>960.01</ele>
        <time>2024-02-14T12:48:56Z</time>
      </trkpt>
      <trkpt lat="44.81891" lon="5.07425">
        <ele>957.13</ele>
        <time>2024-02-14T12:49:11Z</time>
      </trkpt>
      <trkpt lat="44.81897" lon="5.0743">
        <ele>954.73</ele>
        <time>2024-02-14T12:49:25Z</time>
      </trkpt>
      <trkpt lat="44.81905" lon="5.07438">
        <ele>951.84</ele>
        <time>2024-02-14T12:49:43Z</time>
      </trkpt>
      <trkpt lat="44.81914" lon="5.07438">
        <ele>950.4</ele>
        <time>2024-02-14T12:49:56Z</time>
      </trkpt>
      <trkpt lat="44.81924" lon="5.07436">
        <ele>947.52</ele>
        <time>2024-02-14T12:50:14Z</time>
      </trkpt>
      <trkpt lat="44.81926" lon="5.07436">
        <ele>947.04</ele>
        <time>2024-02-14T12:50:31Z</time>
      </trkpt>
      <trkpt lat="44.81935" lon="5.07434">
        <ele>944.63</ele>
        <time>2024-02-14T12:50:48Z</time>
      </trkpt>
      <trkpt lat="44.81942" lon="5.07434">
        <ele>943.19</ele>
        <time>2024-02-14T12:51:02Z</time>
      </trkpt>
      <trkpt lat="44.81953" lon="5.07432">
        <ele>939.83</ele>
        <time>2024-02-14T12:51:18Z</time>
      </trkpt>
      <trkpt lat="44.81962" lon="5.07431">
        <ele>938.38</ele>
        <time>2024-02-14T12:51:30Z</time>
      </trkpt>
      <trkpt lat="44.8197" lon="5.07432">
        <ele>935.02</ele>
        <time>2024-02-14T12:51:44Z</time>
      </trkpt>
      <trkpt lat="44.81978" lon="5.07434">
        <ele>932.14</ele>
        <time>2024-02-14T12:51:57Z</time>
      </trkpt>
      <trkpt lat="44.81985" lon="5.0743">
        <ele>929.73</ele>
        <time>2024-02-14T12:52:15Z</time>
      </trkpt>
      <trkpt lat="44.81992" lon="5.07427">
        <ele>926.85</ele>
        <time>2024-02-14T12:52:29Z</time>
      </trkpt>
      <trkpt lat="44.81995" lon="5.07421">
        <ele>923.96</ele>
        <time>2024-02-14T12:52:42Z</time>
      </trkpt>
      <trkpt lat="44.82001" lon="5.07413">
        <ele>922.04</ele>
        <time>2024-02-14T12:52:55Z</time>
      </trkpt>
      <trkpt lat="44.82007" lon="5.07416">
        <ele>920.6</ele>
        <time>2024-02-14T12:53:08Z</time>
      </trkpt>
      <trkpt lat="44.82015" lon="5.07417">
        <ele>917.72</ele>
        <time>2024-02-14T12:53:22Z</time>
      </trkpt>
      <trkpt lat="44.82025" lon="5.07414">
        <ele>914.83</ele>
        <time>2024-02-14T12:53:35Z</time>
      </trkpt>
      <trkpt lat="44.82038" lon="5.07412">
        <ele>912.43</ele>
        <time>2024-02-14T12:53:51Z</time>
      </trkpt>
      <trkpt lat="44.82049" lon="5.07414">
        <ele>910.51</ele>
        <time>2024-02-14T12:54:07Z</time>
      </trkpt>
      <trkpt lat="44.82063" lon="5.07419">
        <ele>910.51</ele>
        <time>2024-02-14T12:54:22Z</time>
      </trkpt>
      <trkpt lat="44.82077" lon="5.07418">
        <ele>910.51</ele>
        <time>2024-02-14T12:54:35Z</time>
      </trkpt>
      <trkpt lat="44.8209" lon="5.07413">
        <ele>912.91</ele>
        <time>2024-02-14T12:54:49Z</time>
      </trkpt>
      <trkpt lat="44.82091" lon="5.07413">
        <ele>913.39</ele>
        <time>2024-02-14T12:54:50Z</time>
      </trkpt>
      <trkpt lat="44.82105" lon="5.07409">
        <ele>915.31</ele>
        <time>2024-02-14T12:55:05Z</time>
      </trkpt>
      <trkpt lat="44.82109" lon="5.07407">
        <ele>915.31</ele>
        <time>2024-02-14T12:55:09Z</time>
      </trkpt>
      <trkpt lat="44.8212" lon="5.07414">
        <ele>915.31</ele>
        <time>2024-02-14T12:55:23Z</time>
      </trkpt>
      <trkpt lat="44.82124" lon="5.07414">
        <ele>915.31</ele>
        <time>2024-02-14T12:55:27Z</time>
      </trkpt>
      <trkpt lat="44.82136" lon="5.07406">
        <ele>916.27</ele>
        <time>2024-02-14T12:55:42Z</time>
      </trkpt>
      <trkpt lat="44.82146" lon="5.074">
        <ele>917.72</ele>
        <time>2024-02-14T12:55:53Z</time>
      </trkpt>
      <trkpt lat="44.82162" lon="5.07393">
        <ele>918.2</ele>
        <time>2024-02-14T12:56:07Z</time>
      </trkpt>
      <trkpt lat="44.82171" lon="5.07391">
        <ele>918.68</ele>
        <time>2024-02-14T12:56:20Z</time>
      </trkpt>
      <trkpt lat="44.82187" lon="5.07397">
        <ele>919.16</ele>
        <time>2024-02-14T13:02:09Z</time>
      </trkpt>
      <trkpt lat="44.82193" lon="5.07401">
        <ele>920.12</ele>
        <time>2024-02-14T13:02:17Z</time>
      </trkpt>
      <trkpt lat="44.82203" lon="5.07403">
        <ele>920.12</ele>
        <time>2024-02-14T13:02:30Z</time>
      </trkpt>
      <trkpt lat="44.82206" lon="5.074">
        <ele>920.6</ele>
        <time>2024-02-14T13:02:34Z</time>
      </trkpt>
      <trkpt lat="44.82209" lon="5.07398">
        <ele>920.6</ele>
        <time>2024-02-14T13:02:37Z</time>
      </trkpt>
      <trkpt lat="44.82218" lon="5.07389">
        <ele>921.56</ele>
        <time>2024-02-14T13:02:48Z</time>
      </trkpt>
      <trkpt lat="44.82233" lon="5.0738">
        <ele>923.48</ele>
        <time>2024-02-14T13:03:05Z</time>
      </trkpt>
      <trkpt lat="44.82245" lon="5.07378">
        <ele>926.85</ele>
        <time>2024-02-14T13:03:19Z</time>
      </trkpt>
      <trkpt lat="44.82257" lon="5.07382">
        <ele>928.77</ele>
        <time>2024-02-14T13:03:33Z</time>
      </trkpt>
      <trkpt lat="44.82268" lon="5.07387">
        <ele>931.17</ele>
        <time>2024-02-14T13:03:46Z</time>
      </trkpt>
      <trkpt lat="44.8228" lon="5.07392">
        <ele>934.06</ele>
        <time>2024-02-14T13:04:02Z</time>
      </trkpt>
      <trkpt lat="44.82292" lon="5.07394">
        <ele>936.94</ele>
        <time>2024-02-14T13:04:19Z</time>
      </trkpt>
      <trkpt lat="44.82302" lon="5.07399">
        <ele>939.83</ele>
        <time>2024-02-14T13:04:34Z</time>
      </trkpt>
      <trkpt lat="44.82313" lon="5.07402">
        <ele>942.71</ele>
        <time>2024-02-14T13:04:51Z</time>
      </trkpt>
      <trkpt lat="44.82326" lon="5.07405">
        <ele>944.63</ele>
        <time>2024-02-14T13:05:06Z</time>
      </trkpt>
      <trkpt lat="44.82336" lon="5.0741">
        <ele>946.07</ele>
        <time>2024-02-14T13:05:19Z</time>
      </trkpt>
      <trkpt lat="44.82351" lon="5.07413">
        <ele>946.56</ele>
        <time>2024-02-14T13:05:34Z</time>
      </trkpt>
      <trkpt lat="44.82363" lon="5.07413">
        <ele>946.56</ele>
        <time>2024-02-14T13:05:47Z</time>
      </trkpt>
      <trkpt lat="44.82382" lon="5.07409">
        <ele>945.11</ele>
        <time>2024-02-14T13:06:05Z</time>
      </trkpt>
      <trkpt lat="44.82393" lon="5.07403">
        <ele>942.71</ele>
        <time>2024-02-14T13:06:22Z</time>
      </trkpt>
      <trkpt lat="44.82398" lon="5.07399">
        <ele>941.75</ele>
        <time>2024-02-14T13:06:27Z</time>
      </trkpt>
      <trkpt lat="44.82415" lon="5.0739">
        <ele>938.86</ele>
        <time>2024-02-14T13:06:45Z</time>
      </trkpt>
      <trkpt lat="44.82416" lon="5.07389">
        <ele>938.86</ele>
        <time>2024-02-14T13:06:46Z</time>
      </trkpt>
      <trkpt lat="44.82419" lon="5.07385">
        <ele>938.38</ele>
        <time>2024-02-14T13:06:50Z</time>
      </trkpt>
      <trkpt lat="44.82433" lon="5.07371">
        <ele>936.94</ele>
        <time>2024-02-14T13:07:08Z</time>
      </trkpt>
      <trkpt lat="44.82433" lon="5.07362">
        <ele>938.86</ele>
        <time>2024-02-14T13:07:16Z</time>
      </trkpt>
      <trkpt lat="44.82433" lon="5.07359">
        <ele>938.86</ele>
        <time>2024-02-14T13:07:18Z</time>
      </trkpt>
      <trkpt lat="44.82435" lon="5.07342">
        <ele>940.31</ele>
        <time>2024-02-14T13:07:32Z</time>
      </trkpt>
      <trkpt lat="44.82437" lon="5.07334">
        <ele>941.27</ele>
        <time>2024-02-14T13:07:46Z</time>
      </trkpt>
      <trkpt lat="44.8244" lon="5.07337">
        <ele>941.27</ele>
        <time>2024-02-14T13:07:59Z</time>
      </trkpt>
      <trkpt lat="44.82441" lon="5.07337">
        <ele>941.27</ele>
        <time>2024-02-14T13:08:15Z</time>
      </trkpt>
      <trkpt lat="44.82444" lon="5.07337">
        <ele>938.86</ele>
        <time>2024-02-14T13:11:25Z</time>
      </trkpt>
      <trkpt lat="44.82446" lon="5.07338">
        <ele>938.86</ele>
        <time>2024-02-14T13:11:45Z</time>
      </trkpt>
      <trkpt lat="44.82455" lon="5.07346">
        <ele>937.9</ele>
        <time>2024-02-14T13:12:01Z</time>
      </trkpt>
      <trkpt lat="44.82461" lon="5.07354">
        <ele>936.46</ele>
        <time>2024-02-14T13:12:12Z</time>
      </trkpt>
      <trkpt lat="44.82475" lon="5.07366">
        <ele>933.58</ele>
        <time>2024-02-14T13:12:32Z</time>
      </trkpt>
      <trkpt lat="44.82487" lon="5.07371">
        <ele>930.69</ele>
        <time>2024-02-14T13:12:49Z</time>
      </trkpt>
      <trkpt lat="44.82496" lon="5.07379">
        <ele>927.81</ele>
        <time>2024-02-14T13:13:00Z</time>
      </trkpt>
      <trkpt lat="44.82506" lon="5.07383">
        <ele>924.45</ele>
        <time>2024-02-14T13:13:12Z</time>
      </trkpt>
      <trkpt lat="44.82507" lon="5.07383">
        <ele>924.45</ele>
        <time>2024-02-14T13:13:13Z</time>
      </trkpt>
      <trkpt lat="44.82523" lon="5.07377">
        <ele>921.08</ele>
        <time>2024-02-14T13:13:27Z</time>
      </trkpt>
      <trkpt lat="44.8254" lon="5.07375">
        <ele>917.72</ele>
        <time>2024-02-14T13:13:44Z</time>
      </trkpt>
      <trkpt lat="44.82559" lon="5.07369">
        <ele>915.31</ele>
        <time>2024-02-14T13:14:01Z</time>
      </trkpt>
      <trkpt lat="44.82574" lon="5.07367">
        <ele>912.43</ele>
        <time>2024-02-14T13:14:15Z</time>
      </trkpt>
      <trkpt lat="44.82591" lon="5.07359">
        <ele>910.03</ele>
        <time>2024-02-14T13:14:31Z</time>
      </trkpt>
      <trkpt lat="44.82612" lon="5.07354">
        <ele>908.58</ele>
        <time>2024-02-14T13:14:49Z</time>
      </trkpt>
      <trkpt lat="44.82633" lon="5.0735">
        <ele>908.1</ele>
        <time>2024-02-14T13:15:05Z</time>
      </trkpt>
      <trkpt lat="44.82649" lon="5.07348">
        <ele>910.03</ele>
        <time>2024-02-14T13:15:19Z</time>
      </trkpt>
      <trkpt lat="44.82664" lon="5.07342">
        <ele>910.51</ele>
        <time>2024-02-14T13:15:33Z</time>
      </trkpt>
      <trkpt lat="44.82681" lon="5.07337">
        <ele>911.95</ele>
        <time>2024-02-14T13:15:48Z</time>
      </trkpt>
      <trkpt lat="44.82696" lon="5.07334">
        <ele>912.91</ele>
        <time>2024-02-14T13:16:02Z</time>
      </trkpt>
      <trkpt lat="44.82714" lon="5.07331">
        <ele>913.87</ele>
        <time>2024-02-14T13:16:18Z</time>
      </trkpt>
      <trkpt lat="44.82732" lon="5.07331">
        <ele>914.35</ele>
        <time>2024-02-14T13:16:33Z</time>
      </trkpt>
      <trkpt lat="44.82751" lon="5.07327">
        <ele>914.35</ele>
        <time>2024-02-14T13:16:49Z</time>
      </trkpt>
      <trkpt lat="44.82753" lon="5.07326">
        <ele>913.39</ele>
        <time>2024-02-14T13:16:51Z</time>
      </trkpt>
      <trkpt lat="44.82772" lon="5.07315">
        <ele>913.39</ele>
        <time>2024-02-14T13:17:08Z</time>
      </trkpt>
      <trkpt lat="44.82791" lon="5.07316">
        <ele>913.39</ele>
        <time>2024-02-14T13:17:24Z</time>
      </trkpt>
      <trkpt lat="44.82793" lon="5.07316">
        <ele>914.35</ele>
        <time>2024-02-14T13:17:26Z</time>
      </trkpt>
      <trkpt lat="44.82809" lon="5.07317">
        <ele>915.79</ele>
        <time>2024-02-14T13:17:40Z</time>
      </trkpt>
      <trkpt lat="44.82823" lon="5.07321">
        <ele>918.68</ele>
        <time>2024-02-14T13:17:55Z</time>
      </trkpt>
      <trkpt lat="44.82835" lon="5.07329">
        <ele>921.08</ele>
        <time>2024-02-14T13:18:10Z</time>
      </trkpt>
      <trkpt lat="44.82846" lon="5.07336">
        <ele>923.48</ele>
        <time>2024-02-14T13:18:23Z</time>
      </trkpt>
      <trkpt lat="44.8286" lon="5.07343">
        <ele>924.45</ele>
        <time>2024-02-14T13:18:39Z</time>
      </trkpt>
      <trkpt lat="44.82874" lon="5.07349">
        <ele>925.41</ele>
        <time>2024-02-14T13:18:54Z</time>
      </trkpt>
      <trkpt lat="44.82881" lon="5.07348">
        <ele>925.89</ele>
        <time>2024-02-14T13:19:07Z</time>
      </trkpt>
      <trkpt lat="44.82888" lon="5.07348">
        <ele>926.37</ele>
        <time>2024-02-14T13:20:20Z</time>
      </trkpt>
      <trkpt lat="44.8289" lon="5.07351">
        <ele>926.37</ele>
        <time>2024-02-14T13:20:33Z</time>
      </trkpt>
      <trkpt lat="44.82898" lon="5.0736">
        <ele>927.33</ele>
        <time>2024-02-14T13:20:47Z</time>
      </trkpt>
      <trkpt lat="44.82904" lon="5.07364">
        <ele>927.33</ele>
        <time>2024-02-14T13:20:59Z</time>
      </trkpt>
      <trkpt lat="44.82905" lon="5.07364">
        <ele>927.33</ele>
        <time>2024-02-14T13:21:00Z</time>
      </trkpt>
      <trkpt lat="44.82924" lon="5.07368">
        <ele>925.41</ele>
        <time>2024-02-14T13:21:18Z</time>
      </trkpt>
      <trkpt lat="44.82939" lon="5.07371">
        <ele>922.04</ele>
        <time>2024-02-14T13:21:33Z</time>
      </trkpt>
      <trkpt lat="44.82952" lon="5.07372">
        <ele>919.16</ele>
        <time>2024-02-14T13:21:46Z</time>
      </trkpt>
      <trkpt lat="44.8297" lon="5.07375">
        <ele>915.31</ele>
        <time>2024-02-14T13:22:03Z</time>
      </trkpt>
      <trkpt lat="44.82981" lon="5.07375">
        <ele>911.95</ele>
        <time>2024-02-14T13:22:16Z</time>
      </trkpt>
      <trkpt lat="44.82991" lon="5.07374">
        <ele>908.58</ele>
        <time>2024-02-14T13:22:28Z</time>
      </trkpt>
      <trkpt lat="44.83002" lon="5.07373">
        <ele>905.22</ele>
        <time>2024-02-14T13:22:40Z</time>
      </trkpt>
      <trkpt lat="44.83013" lon="5.0737">
        <ele>901.85</ele>
        <time>2024-02-14T13:22:54Z</time>
      </trkpt>
      <trkpt lat="44.83024" lon="5.07367">
        <ele>898.97</ele>
        <time>2024-02-14T13:23:08Z</time>
      </trkpt>
      <trkpt lat="44.83036" lon="5.07364">
        <ele>895.61</ele>
        <time>2024-02-14T13:23:22Z</time>
      </trkpt>
      <trkpt lat="44.83049" lon="5.07366">
        <ele>892.24</ele>
        <time>2024-02-14T13:23:37Z</time>
      </trkpt>
      <trkpt lat="44.83061" lon="5.07364">
        <ele>888.88</ele>
        <time>2024-02-14T13:23:52Z</time>
      </trkpt>
      <trkpt lat="44.83073" lon="5.0736">
        <ele>885.51</ele>
        <time>2024-02-14T13:24:04Z</time>
      </trkpt>
      <trkpt lat="44.83084" lon="5.07358">
        <ele>882.63</ele>
        <time>2024-02-14T13:24:15Z</time>
      </trkpt>
      <trkpt lat="44.831" lon="5.07353">
        <ele>879.26</ele>
        <time>2024-02-14T13:24:30Z</time>
      </trkpt>
      <trkpt lat="44.83112" lon="5.07351">
        <ele>876.38</ele>
        <time>2024-02-14T13:24:41Z</time>
      </trkpt>
      <trkpt lat="44.83131" lon="5.07346">
        <ele>873.01</ele>
        <time>2024-02-14T13:24:58Z</time>
      </trkpt>
      <trkpt lat="44.83151" lon="5.07349">
        <ele>871.09</ele>
        <time>2024-02-14T13:25:15Z</time>
      </trkpt>
      <trkpt lat="44.83162" lon="5.07346">
        <ele>869.65</ele>
        <time>2024-02-14T13:25:33Z</time>
      </trkpt>
      <trkpt lat="44.83169" lon="5.07344">
        <ele>870.13</ele>
        <time>2024-02-14T13:30:03Z</time>
      </trkpt>
      <trkpt lat="44.83177" lon="5.0734">
        <ele>871.57</ele>
        <time>2024-02-14T13:30:10Z</time>
      </trkpt>
      <trkpt lat="44.83189" lon="5.0733">
        <ele>873.01</ele>
        <time>2024-02-14T13:30:23Z</time>
      </trkpt>
      <trkpt lat="44.83208" lon="5.07323">
        <ele>874.46</ele>
        <time>2024-02-14T13:30:40Z</time>
      </trkpt>
      <trkpt lat="44.83222" lon="5.0732">
        <ele>874.94</ele>
        <time>2024-02-14T13:30:55Z</time>
      </trkpt>
      <trkpt lat="44.83228" lon="5.07321">
        <ele>874.94</ele>
        <time>2024-02-14T13:31:15Z</time>
      </trkpt>
      <trkpt lat="44.83245" lon="5.07326">
        <ele>876.38</ele>
        <time>2024-02-14T13:31:29Z</time>
      </trkpt>
      <trkpt lat="44.83263" lon="5.07327">
        <ele>877.34</ele>
        <time>2024-02-14T13:31:47Z</time>
      </trkpt>
      <trkpt lat="44.83279" lon="5.07334">
        <ele>878.78</ele>
        <time>2024-02-14T13:32:03Z</time>
      </trkpt>
      <trkpt lat="44.83297" lon="5.07342">
        <ele>879.74</ele>
        <time>2024-02-14T13:32:19Z</time>
      </trkpt>
      <trkpt lat="44.83312" lon="5.07344">
        <ele>881.19</ele>
        <time>2024-02-14T13:32:34Z</time>
      </trkpt>
      <trkpt lat="44.83319" lon="5.07348">
        <ele>881.67</ele>
        <time>2024-02-14T13:32:45Z</time>
      </trkpt>
      <trkpt lat="44.83333" lon="5.0736">
        <ele>882.63</ele>
        <time>2024-02-14T13:32:59Z</time>
      </trkpt>
      <trkpt lat="44.83352" lon="5.07374">
        <ele>882.63</ele>
        <time>2024-02-14T13:33:16Z</time>
      </trkpt>
      <trkpt lat="44.83369" lon="5.07392">
        <ele>882.63</ele>
        <time>2024-02-14T13:33:34Z</time>
      </trkpt>
      <trkpt lat="44.83385" lon="5.07401">
        <ele>882.63</ele>
        <time>2024-02-14T13:33:52Z</time>
      </trkpt>
      <trkpt lat="44.8339" lon="5.07407">
        <ele>881.19</ele>
        <time>2024-02-14T13:34:00Z</time>
      </trkpt>
      <trkpt lat="44.8339" lon="5.07417">
        <ele>879.74</ele>
        <time>2024-02-14T13:34:13Z</time>
      </trkpt>
      <trkpt lat="44.8339" lon="5.07418">
        <ele>879.26</ele>
        <time>2024-02-14T13:34:14Z</time>
      </trkpt>
      <trkpt lat="44.83387" lon="5.07434">
        <ele>875.42</ele>
        <time>2024-02-14T13:34:27Z</time>
      </trkpt>
      <trkpt lat="44.83384" lon="5.07449">
        <ele>872.53</ele>
        <time>2024-02-14T13:34:39Z</time>
      </trkpt>
      <trkpt lat="44.83381" lon="5.07471">
        <ele>869.65</ele>
        <time>2024-02-14T13:34:54Z</time>
      </trkpt>
      <trkpt lat="44.8338" lon="5.07486">
        <ele>866.77</ele>
        <time>2024-02-14T13:35:04Z</time>
      </trkpt>
      <trkpt lat="44.83379" lon="5.07493">
        <ele>866.29</ele>
        <time>2024-02-14T13:35:09Z</time>
      </trkpt>
      <trkpt lat="44.83379" lon="5.07499">
        <ele>865.32</ele>
        <time>2024-02-14T13:35:13Z</time>
      </trkpt>
      <trkpt lat="44.83379" lon="5.07516">
        <ele>862.92</ele>
        <time>2024-02-14T13:35:25Z</time>
      </trkpt>
      <trkpt lat="44.83385" lon="5.07527">
        <ele>859.56</ele>
        <time>2024-02-14T13:35:36Z</time>
      </trkpt>
      <trkpt lat="44.83388" lon="5.07535">
        <ele>857.15</ele>
        <time>2024-02-14T13:35:47Z</time>
      </trkpt>
      <trkpt lat="44.83391" lon="5.07544">
        <ele>854.75</ele>
        <time>2024-02-14T13:35:55Z</time>
      </trkpt>
      <trkpt lat="44.83389" lon="5.07558">
        <ele>852.35</ele>
        <time>2024-02-14T13:36:09Z</time>
      </trkpt>
      <trkpt lat="44.83387" lon="5.07569">
        <ele>849.46</ele>
        <time>2024-02-14T13:36:19Z</time>
      </trkpt>
      <trkpt lat="44.83387" lon="5.07577">
        <ele>848.02</ele>
        <time>2024-02-14T13:36:25Z</time>
      </trkpt>
      <trkpt lat="44.83385" lon="5.07599">
        <ele>844.66</ele>
        <time>2024-02-14T13:36:41Z</time>
      </trkpt>
      <trkpt lat="44.83381" lon="5.07614">
        <ele>842.25</ele>
        <time>2024-02-14T13:36:55Z</time>
      </trkpt>
      <trkpt lat="44.83381" lon="5.07623">
        <ele>840.33</ele>
        <time>2024-02-14T13:37:09Z</time>
      </trkpt>
      <trkpt lat="44.8338" lon="5.07626">
        <ele>839.85</ele>
        <time>2024-02-14T13:37:24Z</time>
      </trkpt>
      <trkpt lat="44.83382" lon="5.07627">
        <ele>839.37</ele>
        <time>2024-02-14T13:37:45Z</time>
      </trkpt>
      <trkpt lat="44.83384" lon="5.0763">
        <ele>837.45</ele>
        <time>2024-02-14T13:38:04Z</time>
      </trkpt>
      <trkpt lat="44.8339" lon="5.0763">
        <ele>835.04</ele>
        <time>2024-02-14T13:38:18Z</time>
      </trkpt>
      <trkpt lat="44.83395" lon="5.07628">
        <ele>832.64</ele>
        <time>2024-02-14T13:38:35Z</time>
      </trkpt>
      <trkpt lat="44.83398" lon="5.07628">
        <ele>832.16</ele>
        <time>2024-02-14T13:38:54Z</time>
      </trkpt>
      <trkpt lat="44.83402" lon="5.07628">
        <ele>828.79</ele>
        <time>2024-02-14T13:39:07Z</time>
      </trkpt>
      <trkpt lat="44.83408" lon="5.07622">
        <ele>825.91</ele>
        <time>2024-02-14T13:39:19Z</time>
      </trkpt>
      <trkpt lat="44.83411" lon="5.07616">
        <ele>824.47</ele>
        <time>2024-02-14T13:39:26Z</time>
      </trkpt>
      <trkpt lat="44.83418" lon="5.076">
        <ele>822.55</ele>
        <time>2024-02-14T13:39:40Z</time>
      </trkpt>
      <trkpt lat="44.83424" lon="5.07588">
        <ele>821.1</ele>
        <time>2024-02-14T13:39:53Z</time>
      </trkpt>
      <trkpt lat="44.83433" lon="5.07569">
        <ele>818.7</ele>
        <time>2024-02-14T13:40:09Z</time>
      </trkpt>
      <trkpt lat="44.83442" lon="5.07554">
        <ele>815.82</ele>
        <time>2024-02-14T13:40:22Z</time>
      </trkpt>
      <trkpt lat="44.83448" lon="5.07543">
        <ele>812.45</ele>
        <time>2024-02-14T13:40:33Z</time>
      </trkpt>
      <trkpt lat="44.83456" lon="5.07531">
        <ele>809.09</ele>
        <time>2024-02-14T13:40:46Z</time>
      </trkpt>
      <trkpt lat="44.83465" lon="5.07518">
        <ele>805.72</ele>
        <time>2024-02-14T13:40:59Z</time>
      </trkpt>
      <trkpt lat="44.83471" lon="5.07511">
        <ele>802.36</ele>
        <time>2024-02-14T13:41:10Z</time>
      </trkpt>
      <trkpt lat="44.83479" lon="5.07506">
        <ele>799.47</ele>
        <time>2024-02-14T13:41:22Z</time>
      </trkpt>
      <trkpt lat="44.83486" lon="5.07499">
        <ele>796.11</ele>
        <time>2024-02-14T13:41:31Z</time>
      </trkpt>
      <trkpt lat="44.83491" lon="5.07494">
        <ele>793.22</ele>
        <time>2024-02-14T13:41:42Z</time>
      </trkpt>
      <trkpt lat="44.835" lon="5.07487">
        <ele>789.86</ele>
        <time>2024-02-14T13:41:53Z</time>
      </trkpt>
      <trkpt lat="44.83504" lon="5.07481">
        <ele>786.5</ele>
        <time>2024-02-14T13:42:05Z</time>
      </trkpt>
      <trkpt lat="44.83512" lon="5.07477">
        <ele>783.61</ele>
        <time>2024-02-14T13:42:16Z</time>
      </trkpt>
      <trkpt lat="44.83518" lon="5.0747">
        <ele>779.77</ele>
        <time>2024-02-14T13:42:26Z</time>
      </trkpt>
      <trkpt lat="44.83525" lon="5.0746">
        <ele>775.92</ele>
        <time>2024-02-14T13:42:38Z</time>
      </trkpt>
      <trkpt lat="44.83533" lon="5.07451">
        <ele>773.04</ele>
        <time>2024-02-14T13:42:50Z</time>
      </trkpt>
      <trkpt lat="44.83541" lon="5.0744">
        <ele>769.19</ele>
        <time>2024-02-14T13:43:04Z</time>
      </trkpt>
      <trkpt lat="44.8355" lon="5.07436">
        <ele>765.83</ele>
        <time>2024-02-14T13:43:16Z</time>
      </trkpt>
      <trkpt lat="44.83554" lon="5.07429">
        <ele>762.94</ele>
        <time>2024-02-14T13:43:28Z</time>
      </trkpt>
      <trkpt lat="44.83561" lon="5.07422">
        <ele>759.58</ele>
        <time>2024-02-14T13:43:40Z</time>
      </trkpt>
      <trkpt lat="44.83571" lon="5.07416">
        <ele>756.21</ele>
        <time>2024-02-14T13:43:51Z</time>
      </trkpt>
      <trkpt lat="44.83575" lon="5.07411">
        <ele>753.81</ele>
        <time>2024-02-14T13:43:58Z</time>
      </trkpt>
      <trkpt lat="44.83582" lon="5.07404">
        <ele>750.45</ele>
        <time>2024-02-14T13:44:07Z</time>
      </trkpt>
      <trkpt lat="44.83592" lon="5.07402">
        <ele>747.08</ele>
        <time>2024-02-14T13:44:16Z</time>
      </trkpt>
      <trkpt lat="44.83604" lon="5.07401">
        <ele>743.72</ele>
        <time>2024-02-14T13:44:28Z</time>
      </trkpt>
      <trkpt lat="44.83613" lon="5.07401">
        <ele>740.35</ele>
        <time>2024-02-14T13:44:39Z</time>
      </trkpt>
      <trkpt lat="44.83629" lon="5.07407">
        <ele>737.95</ele>
        <time>2024-02-14T13:44:55Z</time>
      </trkpt>
      <trkpt lat="44.83637" lon="5.07403">
        <ele>735.55</ele>
        <time>2024-02-14T13:45:08Z</time>
      </trkpt>
      <trkpt lat="44.83646" lon="5.07404">
        <ele>736.03</ele>
        <time>2024-02-14T13:51:14Z</time>
      </trkpt>
      <trkpt lat="44.8365" lon="5.07403">
        <ele>736.03</ele>
        <time>2024-02-14T13:51:31Z</time>
      </trkpt>
      <trkpt lat="44.8366" lon="5.07403">
        <ele>734.58</ele>
        <time>2024-02-14T13:51:42Z</time>
      </trkpt>
      <trkpt lat="44.83662" lon="5.07403">
        <ele>734.58</ele>
        <time>2024-02-14T13:51:44Z</time>
      </trkpt>
      <trkpt lat="44.83666" lon="5.07404">
        <ele>735.07</ele>
        <time>2024-02-14T13:51:48Z</time>
      </trkpt>
      <trkpt lat="44.8367" lon="5.07405">
        <ele>735.07</ele>
        <time>2024-02-14T13:51:51Z</time>
      </trkpt>
      <trkpt lat="44.83682" lon="5.07406">
        <ele>735.07</ele>
        <time>2024-02-14T13:52:01Z</time>
      </trkpt>
      <trkpt lat="44.83695" lon="5.07402">
        <ele>733.62</ele>
        <time>2024-02-14T13:52:11Z</time>
      </trkpt>
      <trkpt lat="44.83699" lon="5.07399">
        <ele>732.66</ele>
        <time>2024-02-14T13:52:15Z</time>
      </trkpt>
      <trkpt lat="44.83717" lon="5.07386">
        <ele>729.3</ele>
        <time>2024-02-14T13:52:32Z</time>
      </trkpt>
      <trkpt lat="44.83728" lon="5.07375">
        <ele>726.41</ele>
        <time>2024-02-14T13:52:45Z</time>
      </trkpt>
      <trkpt lat="44.83733" lon="5.07374">
        <ele>725.93</ele>
        <time>2024-02-14T13:53:00Z</time>
      </trkpt>
      <trkpt lat="44.83736" lon="5.07377">
        <ele>725.93</ele>
        <time>2024-02-14T13:53:28Z</time>
      </trkpt>
      <trkpt lat="44.83743" lon="5.07369">
        <ele>724.01</ele>
        <time>2024-02-14T13:53:48Z</time>
      </trkpt>
      <trkpt lat="44.83752" lon="5.07359">
        <ele>720.65</ele>
        <time>2024-02-14T13:54:00Z</time>
      </trkpt>
      <trkpt lat="44.83759" lon="5.07353">
        <ele>717.76</ele>
        <time>2024-02-14T13:54:13Z</time>
      </trkpt>
      <trkpt lat="44.83766" lon="5.07344">
        <ele>715.84</ele>
        <time>2024-02-14T13:54:26Z</time>
      </trkpt>
      <trkpt lat="44.83776" lon="5.07337">
        <ele>712.95</ele>
        <time>2024-02-14T13:54:38Z</time>
      </trkpt>
      <trkpt lat="44.83789" lon="5.07329">
        <ele>710.55</ele>
        <time>2024-02-14T13:54:52Z</time>
      </trkpt>
      <trkpt lat="44.83799" lon="5.07324">
        <ele>707.67</ele>
        <time>2024-02-14T13:55:05Z</time>
      </trkpt>
      <trkpt lat="44.83809" lon="5.07316">
        <ele>704.3</ele>
        <time>2024-02-14T13:55:18Z</time>
      </trkpt>
      <trkpt lat="44.83819" lon="5.07309">
        <ele>700.94</ele>
        <time>2024-02-14T13:55:33Z</time>
      </trkpt>
      <trkpt lat="44.83831" lon="5.07306">
        <ele>698.53</ele>
        <time>2024-02-14T13:55:47Z</time>
      </trkpt>
      <trkpt lat="44.83844" lon="5.07301">
        <ele>695.65</ele>
        <time>2024-02-14T13:56:00Z</time>
      </trkpt>
      <trkpt lat="44.83858" lon="5.07294">
        <ele>693.25</ele>
        <time>2024-02-14T13:56:15Z</time>
      </trkpt>
      <trkpt lat="44.83863" lon="5.07291">
        <ele>691.81</ele>
        <time>2024-02-14T13:56:21Z</time>
      </trkpt>
      <trkpt lat="44.83874" lon="5.07284">
        <ele>688.92</ele>
        <time>2024-02-14T13:56:34Z</time>
      </trkpt>
      <trkpt lat="44.83883" lon="5.07276">
        <ele>687</ele>
        <time>2024-02-14T13:56:45Z</time>
      </trkpt>
      <trkpt lat="44.83888" lon="5.0727">
        <ele>685.56</ele>
        <time>2024-02-14T13:56:51Z</time>
      </trkpt>
      <trkpt lat="44.83901" lon="5.0726">
        <ele>682.19</ele>
        <time>2024-02-14T13:57:06Z</time>
      </trkpt>
      <trkpt lat="44.8391" lon="5.07251">
        <ele>680.27</ele>
        <time>2024-02-14T13:57:19Z</time>
      </trkpt>
      <trkpt lat="44.83919" lon="5.07243">
        <ele>677.87</ele>
        <time>2024-02-14T13:57:33Z</time>
      </trkpt>
      <trkpt lat="44.83928" lon="5.07234">
        <ele>674.98</ele>
        <time>2024-02-14T13:57:47Z</time>
      </trkpt>
      <trkpt lat="44.83938" lon="5.07225">
        <ele>673.06</ele>
        <time>2024-02-14T13:58:00Z</time>
      </trkpt>
      <trkpt lat="44.83947" lon="5.07216">
        <ele>670.66</ele>
        <time>2024-02-14T13:58:14Z</time>
      </trkpt>
      <trkpt lat="44.83956" lon="5.07204">
        <ele>667.77</ele>
        <time>2024-02-14T13:58:29Z</time>
      </trkpt>
      <trkpt lat="44.83964" lon="5.07195">
        <ele>665.85</ele>
        <time>2024-02-14T13:58:41Z</time>
      </trkpt>
      <trkpt lat="44.83975" lon="5.07185">
        <ele>662.97</ele>
        <time>2024-02-14T13:58:56Z</time>
      </trkpt>
      <trkpt lat="44.83984" lon="5.07174">
        <ele>659.6</ele>
        <time>2024-02-14T13:59:10Z</time>
      </trkpt>
      <trkpt lat="44.83985" lon="5.07173">
        <ele>659.6</ele>
        <time>2024-02-14T13:59:11Z</time>
      </trkpt>
      <trkpt lat="44.83994" lon="5.07157">
        <ele>656.72</ele>
        <time>2024-02-14T13:59:26Z</time>
      </trkpt>
      <trkpt lat="44.84" lon="5.07146">
        <ele>653.35</ele>
        <time>2024-02-14T13:59:37Z</time>
      </trkpt>
      <trkpt lat="44.84009" lon="5.07135">
        <ele>650.95</ele>
        <time>2024-02-14T13:59:52Z</time>
      </trkpt>
      <trkpt lat="44.8402" lon="5.07123">
        <ele>649.03</ele>
        <time>2024-02-14T14:00:06Z</time>
      </trkpt>
      <trkpt lat="44.84031" lon="5.07102">
        <ele>647.59</ele>
        <time>2024-02-14T14:00:21Z</time>
      </trkpt>
      <trkpt lat="44.84033" lon="5.071">
        <ele>647.59</ele>
        <time>2024-02-14T14:00:22Z</time>
      </trkpt>
      <trkpt lat="44.84041" lon="5.07081">
        <ele>645.66</ele>
        <time>2024-02-14T14:00:37Z</time>
      </trkpt>
      <trkpt lat="44.84031" lon="5.07092">
        <ele>644.22</ele>
        <time>2024-02-14T14:09:09Z</time>
      </trkpt>
      <trkpt lat="44.84013" lon="5.07101">
        <ele>641.82</ele>
        <time>2024-02-14T14:09:27Z</time>
      </trkpt>
      <trkpt lat="44.83996" lon="5.07107">
        <ele>639.41</ele>
        <time>2024-02-14T14:09:42Z</time>
      </trkpt>
      <trkpt lat="44.83978" lon="5.0711">
        <ele>638.45</ele>
        <time>2024-02-14T14:09:57Z</time>
      </trkpt>
      <trkpt lat="44.83961" lon="5.07113">
        <ele>637.01</ele>
        <time>2024-02-14T14:10:11Z</time>
      </trkpt>
      <trkpt lat="44.8394" lon="5.07117">
        <ele>635.57</ele>
        <time>2024-02-14T14:10:27Z</time>
      </trkpt>
      <trkpt lat="44.83919" lon="5.07119">
        <ele>634.61</ele>
        <time>2024-02-14T14:10:44Z</time>
      </trkpt>
      <trkpt lat="44.83903" lon="5.07121">
        <ele>632.68</ele>
        <time>2024-02-14T14:10:58Z</time>
      </trkpt>
      <trkpt lat="44.83883" lon="5.0712">
        <ele>631.24</ele>
        <time>2024-02-14T14:11:15Z</time>
      </trkpt>
      <trkpt lat="44.83872" lon="5.0712">
        <ele>629.8</ele>
        <time>2024-02-14T14:11:28Z</time>
      </trkpt>
      <trkpt lat="44.83858" lon="5.07116">
        <ele>628.36</ele>
        <time>2024-02-14T14:11:40Z</time>
      </trkpt>
      <trkpt lat="44.83839" lon="5.07104">
        <ele>627.4</ele>
        <time>2024-02-14T14:11:56Z</time>
      </trkpt>
      <trkpt lat="44.83824" lon="5.07099">
        <ele>626.44</ele>
        <time>2024-02-14T14:12:10Z</time>
      </trkpt>
      <trkpt lat="44.83805" lon="5.07096">
        <ele>624.99</ele>
        <time>2024-02-14T14:12:23Z</time>
      </trkpt>
      <trkpt lat="44.83791" lon="5.07098">
        <ele>624.99</ele>
        <time>2024-02-14T14:12:35Z</time>
      </trkpt>
      <trkpt lat="44.83771" lon="5.07106">
        <ele>624.51</ele>
        <time>2024-02-14T14:12:50Z</time>
      </trkpt>
      <trkpt lat="44.83753" lon="5.07115">
        <ele>623.07</ele>
        <time>2024-02-14T14:13:06Z</time>
      </trkpt>
      <trkpt lat="44.83738" lon="5.07119">
        <ele>621.63</ele>
        <time>2024-02-14T14:13:19Z</time>
      </trkpt>
      <trkpt lat="44.83724" lon="5.07122">
        <ele>619.71</ele>
        <time>2024-02-14T14:13:34Z</time>
      </trkpt>
      <trkpt lat="44.8372" lon="5.07121">
        <ele>619.71</ele>
        <time>2024-02-14T14:13:37Z</time>
      </trkpt>
      <trkpt lat="44.83705" lon="5.07104">
        <ele>617.78</ele>
        <time>2024-02-14T14:13:52Z</time>
      </trkpt>
      <trkpt lat="44.83697" lon="5.07079">
        <ele>617.3</ele>
        <time>2024-02-14T14:14:07Z</time>
      </trkpt>
      <trkpt lat="44.83695" lon="5.07052">
        <ele>615.86</ele>
        <time>2024-02-14T14:14:20Z</time>
      </trkpt>
      <trkpt lat="44.83694" lon="5.07047">
        <ele>614.9</ele>
        <time>2024-02-14T14:14:23Z</time>
      </trkpt>
      <trkpt lat="44.83684" lon="5.07023">
        <ele>613.94</ele>
        <time>2024-02-14T14:14:39Z</time>
      </trkpt>
      <trkpt lat="44.83675" lon="5.07004">
        <ele>613.46</ele>
        <time>2024-02-14T14:14:54Z</time>
      </trkpt>
      <trkpt lat="44.83662" lon="5.06985">
        <ele>610.57</ele>
        <time>2024-02-14T14:15:11Z</time>
      </trkpt>
      <trkpt lat="44.83651" lon="5.06971">
        <ele>607.21</ele>
        <time>2024-02-14T14:15:25Z</time>
      </trkpt>
      <trkpt lat="44.83641" lon="5.06957">
        <ele>603.85</ele>
        <time>2024-02-14T14:15:41Z</time>
      </trkpt>
      <trkpt lat="44.83638" lon="5.06944">
        <ele>601.92</ele>
        <time>2024-02-14T14:15:53Z</time>
      </trkpt>
      <trkpt lat="44.83634" lon="5.06921">
        <ele>600</ele>
        <time>2024-02-14T14:16:10Z</time>
      </trkpt>
      <trkpt lat="44.83634" lon="5.06915">
        <ele>600</ele>
        <time>2024-02-14T14:16:29Z</time>
      </trkpt>
      <trkpt lat="44.83634" lon="5.06913">
        <ele>600</ele>
        <time>2024-02-14T14:16:46Z</time>
      </trkpt>
      <trkpt lat="44.83634" lon="5.06907">
        <ele>599.52</ele>
        <time>2024-02-14T14:17:10Z</time>
      </trkpt>
      <trkpt lat="44.83633" lon="5.06892">
        <ele>599.04</ele>
        <time>2024-02-14T14:17:20Z</time>
      </trkpt>
      <trkpt lat="44.83632" lon="5.06871">
        <ele>599.04</ele>
        <time>2024-02-14T14:17:35Z</time>
      </trkpt>
      <trkpt lat="44.83627" lon="5.06844">
        <ele>601.44</ele>
        <time>2024-02-14T14:17:51Z</time>
      </trkpt>
      <trkpt lat="44.83622" lon="5.06829">
        <ele>602.4</ele>
        <time>2024-02-14T14:18:02Z</time>
      </trkpt>
      <trkpt lat="44.83616" lon="5.06823">
        <ele>602.4</ele>
        <time>2024-02-14T14:18:18Z</time>
      </trkpt>
      <trkpt lat="44.83607" lon="5.06822">
        <ele>602.4</ele>
        <time>2024-02-14T14:18:43Z</time>
      </trkpt>
      <trkpt lat="44.83601" lon="5.06823">
        <ele>602.4</ele>
        <time>2024-02-14T14:18:50Z</time>
      </trkpt>
      <trkpt lat="44.83588" lon="5.06827">
        <ele>602.4</ele>
        <time>2024-02-14T14:19:02Z</time>
      </trkpt>
      <trkpt lat="44.83576" lon="5.06828">
        <ele>601.92</ele>
        <time>2024-02-14T14:19:13Z</time>
      </trkpt>
      <trkpt lat="44.83556" lon="5.06829">
        <ele>601.92</ele>
        <time>2024-02-14T14:19:31Z</time>
      </trkpt>
      <trkpt lat="44.83537" lon="5.06831">
        <ele>601.92</ele>
        <time>2024-02-14T14:19:46Z</time>
      </trkpt>
      <trkpt lat="44.83522" lon="5.06835">
        <ele>601.92</ele>
        <time>2024-02-14T14:19:59Z</time>
      </trkpt>
      <trkpt lat="44.83508" lon="5.06837">
        <ele>601.92</ele>
        <time>2024-02-14T14:20:11Z</time>
      </trkpt>
      <trkpt lat="44.8349" lon="5.06829">
        <ele>600</ele>
        <time>2024-02-14T14:20:27Z</time>
      </trkpt>
      <trkpt lat="44.83488" lon="5.06827">
        <ele>600</ele>
        <time>2024-02-14T14:20:29Z</time>
      </trkpt>
      <trkpt lat="44.83472" lon="5.06811">
        <ele>599.04</ele>
        <time>2024-02-14T14:20:45Z</time>
      </trkpt>
      <trkpt lat="44.83462" lon="5.06794">
        <ele>599.04</ele>
        <time>2024-02-14T14:20:58Z</time>
      </trkpt>
      <trkpt lat="44.83447" lon="5.06777">
        <ele>597.6</ele>
        <time>2024-02-14T14:21:15Z</time>
      </trkpt>
      <trkpt lat="44.83431" lon="5.06773">
        <ele>595.67</ele>
        <time>2024-02-14T14:21:30Z</time>
      </trkpt>
      <trkpt lat="44.83421" lon="5.06767">
        <ele>594.71</ele>
        <time>2024-02-14T14:21:38Z</time>
      </trkpt>
      <trkpt lat="44.83419" lon="5.06765">
        <ele>594.71</ele>
        <time>2024-02-14T14:21:40Z</time>
      </trkpt>
      <trkpt lat="44.83402" lon="5.06754">
        <ele>592.79</ele>
        <time>2024-02-14T14:21:55Z</time>
      </trkpt>
      <trkpt lat="44.83386" lon="5.06742">
        <ele>591.35</ele>
        <time>2024-02-14T14:22:10Z</time>
      </trkpt>
      <trkpt lat="44.83383" lon="5.06739">
        <ele>590.39</ele>
        <time>2024-02-14T14:22:14Z</time>
      </trkpt>
      <trkpt lat="44.83374" lon="5.0672">
        <ele>587.02</ele>
        <time>2024-02-14T14:22:28Z</time>
      </trkpt>
      <trkpt lat="44.83368" lon="5.06696">
        <ele>584.62</ele>
        <time>2024-02-14T14:22:42Z</time>
      </trkpt>
      <trkpt lat="44.83361" lon="5.06673">
        <ele>582.7</ele>
        <time>2024-02-14T14:22:56Z</time>
      </trkpt>
      <trkpt lat="44.83351" lon="5.06649">
        <ele>581.73</ele>
        <time>2024-02-14T14:23:11Z</time>
      </trkpt>
      <trkpt lat="44.83336" lon="5.06629">
        <ele>581.25</ele>
        <time>2024-02-14T14:23:27Z</time>
      </trkpt>
      <trkpt lat="44.83322" lon="5.06618">
        <ele>578.37</ele>
        <time>2024-02-14T14:23:42Z</time>
      </trkpt>
      <trkpt lat="44.83304" lon="5.06614">
        <ele>575.01</ele>
        <time>2024-02-14T14:23:59Z</time>
      </trkpt>
      <trkpt lat="44.8329" lon="5.06622">
        <ele>572.12</ele>
        <time>2024-02-14T14:24:15Z</time>
      </trkpt>
      <trkpt lat="44.8328" lon="5.06629">
        <ele>570.68</ele>
        <time>2024-02-14T14:24:25Z</time>
      </trkpt>
      <trkpt lat="44.83268" lon="5.06628">
        <ele>569.24</ele>
        <time>2024-02-14T14:24:37Z</time>
      </trkpt>
      <trkpt lat="44.83251" lon="5.06613">
        <ele>565.87</ele>
        <time>2024-02-14T14:24:54Z</time>
      </trkpt>
      <trkpt lat="44.83237" lon="5.06599">
        <ele>563.95</ele>
        <time>2024-02-14T14:25:09Z</time>
      </trkpt>
      <trkpt lat="44.83221" lon="5.06579">
        <ele>560.59</ele>
        <time>2024-02-14T14:25:27Z</time>
      </trkpt>
      <trkpt lat="44.83207" lon="5.06567">
        <ele>558.66</ele>
        <time>2024-02-14T14:25:44Z</time>
      </trkpt>
      <trkpt lat="44.83196" lon="5.06558">
        <ele>557.7</ele>
        <time>2024-02-14T14:26:00Z</time>
      </trkpt>
      <trkpt lat="44.83187" lon="5.06546">
        <ele>556.74</ele>
        <time>2024-02-14T14:26:14Z</time>
      </trkpt>
      <trkpt lat="44.83178" lon="5.0653">
        <ele>556.74</ele>
        <time>2024-02-14T14:26:27Z</time>
      </trkpt>
      <trkpt lat="44.83157" lon="5.06526">
        <ele>556.26</ele>
        <time>2024-02-14T14:26:45Z</time>
      </trkpt>
      <trkpt lat="44.83151" lon="5.06526">
        <ele>556.26</ele>
        <time>2024-02-14T14:26:50Z</time>
      </trkpt>
      <trkpt lat="44.8313" lon="5.06532">
        <ele>554.34</ele>
        <time>2024-02-14T14:27:08Z</time>
      </trkpt>
      <trkpt lat="44.83121" lon="5.06533">
        <ele>553.86</ele>
        <time>2024-02-14T14:27:22Z</time>
      </trkpt>
      <trkpt lat="44.83114" lon="5.06531">
        <ele>553.38</ele>
        <time>2024-02-14T14:27:34Z</time>
      </trkpt>
      <trkpt lat="44.83106" lon="5.06514">
        <ele>551.93</ele>
        <time>2024-02-14T14:27:46Z</time>
      </trkpt>
      <trkpt lat="44.83108" lon="5.06494">
        <ele>551.45</ele>
        <time>2024-02-14T14:27:56Z</time>
      </trkpt>
      <trkpt lat="44.83109" lon="5.06476">
        <ele>550.49</ele>
        <time>2024-02-14T14:28:07Z</time>
      </trkpt>
      <trkpt lat="44.83112" lon="5.06455">
        <ele>550.49</ele>
        <time>2024-02-14T14:28:22Z</time>
      </trkpt>
      <trkpt lat="44.83115" lon="5.06437">
        <ele>551.93</ele>
        <time>2024-02-14T14:28:33Z</time>
      </trkpt>
      <trkpt lat="44.8312" lon="5.06412">
        <ele>552.41</ele>
        <time>2024-02-14T14:28:48Z</time>
      </trkpt>
      <trkpt lat="44.83126" lon="5.06387">
        <ele>552.9</ele>
        <time>2024-02-14T14:29:03Z</time>
      </trkpt>
      <trkpt lat="44.83128" lon="5.06379">
        <ele>552.9</ele>
        <time>2024-02-14T14:29:08Z</time>
      </trkpt>
      <trkpt lat="44.83134" lon="5.06352">
        <ele>553.38</ele>
        <time>2024-02-14T14:29:24Z</time>
      </trkpt>
      <trkpt lat="44.8314" lon="5.06327">
        <ele>554.34</ele>
        <time>2024-02-14T14:29:39Z</time>
      </trkpt>
      <trkpt lat="44.83143" lon="5.06307">
        <ele>554.82</ele>
        <time>2024-02-14T14:29:51Z</time>
      </trkpt>
      <trkpt lat="44.83146" lon="5.06297">
        <ele>554.82</ele>
        <time>2024-02-14T14:29:57Z</time>
      </trkpt>
      <trkpt lat="44.83147" lon="5.06293">
        <ele>554.82</ele>
        <time>2024-02-14T14:29:59Z</time>
      </trkpt>
      <trkpt lat="44.83154" lon="5.06268">
        <ele>555.3</ele>
        <time>2024-02-14T14:30:14Z</time>
      </trkpt>
      <trkpt lat="44.83159" lon="5.06254">
        <ele>556.74</ele>
        <time>2024-02-14T14:30:29Z</time>
      </trkpt>
      <trkpt lat="44.83164" lon="5.06239">
        <ele>558.66</ele>
        <time>2024-02-14T14:30:43Z</time>
      </trkpt>
      <trkpt lat="44.83168" lon="5.06224">
        <ele>561.07</ele>
        <time>2024-02-14T14:30:58Z</time>
      </trkpt>
      <trkpt lat="44.83165" lon="5.06214">
        <ele>561.55</ele>
        <time>2024-02-14T14:31:11Z</time>
      </trkpt>
      <trkpt lat="44.83158" lon="5.06212">
        <ele>563.47</ele>
        <time>2024-02-14T14:31:25Z</time>
      </trkpt>
      <trkpt lat="44.83152" lon="5.06209">
        <ele>563.95</ele>
        <time>2024-02-14T14:31:39Z</time>
      </trkpt>
      <trkpt lat="44.83152" lon="5.06209">
        <ele>563.95</ele>
        <time>2024-02-14T14:31:56Z</time>
      </trkpt>
      <trkpt lat="44.83152" lon="5.0621">
        <ele>563.95</ele>
        <time>2024-02-14T14:32:28Z</time>
      </trkpt>
      <trkpt lat="44.83147" lon="5.06209">
        <ele>564.43</ele>
        <time>2024-02-14T14:32:49Z</time>
      </trkpt>
      <trkpt lat="44.83138" lon="5.0621">
        <ele>562.99</ele>
        <time>2024-02-14T14:32:57Z</time>
      </trkpt>
      <trkpt lat="44.83114" lon="5.06215">
        <ele>562.99</ele>
        <time>2024-02-14T14:33:15Z</time>
      </trkpt>
      <trkpt lat="44.83096" lon="5.06221">
        <ele>562.51</ele>
        <time>2024-02-14T14:33:31Z</time>
      </trkpt>
      <trkpt lat="44.83076" lon="5.06228">
        <ele>562.51</ele>
        <time>2024-02-14T14:33:48Z</time>
      </trkpt>
      <trkpt lat="44.8306" lon="5.06238">
        <ele>562.03</ele>
        <time>2024-02-14T14:34:02Z</time>
      </trkpt>
      <trkpt lat="44.8304" lon="5.06251">
        <ele>559.62</ele>
        <time>2024-02-14T14:34:20Z</time>
      </trkpt>
      <trkpt lat="44.83022" lon="5.0626">
        <ele>558.18</ele>
        <time>2024-02-14T14:34:35Z</time>
      </trkpt>
      <trkpt lat="44.82999" lon="5.06271">
        <ele>557.7</ele>
        <time>2024-02-14T14:34:55Z</time>
      </trkpt>
      <trkpt lat="44.82981" lon="5.06277">
        <ele>556.74</ele>
        <time>2024-02-14T14:35:10Z</time>
      </trkpt>
      <trkpt lat="44.82963" lon="5.06281">
        <ele>555.78</ele>
        <time>2024-02-14T14:35:25Z</time>
      </trkpt>
      <trkpt lat="44.82961" lon="5.06281">
        <ele>555.78</ele>
        <time>2024-02-14T14:35:26Z</time>
      </trkpt>
      <trkpt lat="44.82943" lon="5.06283">
        <ele>554.82</ele>
        <time>2024-02-14T14:35:41Z</time>
      </trkpt>
      <trkpt lat="44.82927" lon="5.06282">
        <ele>554.34</ele>
        <time>2024-02-14T14:35:56Z</time>
      </trkpt>
      <trkpt lat="44.82906" lon="5.06273">
        <ele>554.34</ele>
        <time>2024-02-14T14:36:13Z</time>
      </trkpt>
      <trkpt lat="44.8289" lon="5.0626">
        <ele>553.86</ele>
        <time>2024-02-14T14:36:28Z</time>
      </trkpt>
      <trkpt lat="44.82878" lon="5.06242">
        <ele>553.86</ele>
        <time>2024-02-14T14:36:43Z</time>
      </trkpt>
      <trkpt lat="44.82867" lon="5.06226">
        <ele>554.82</ele>
        <time>2024-02-14T14:36:57Z</time>
      </trkpt>
      <trkpt lat="44.82865" lon="5.06224">
        <ele>554.82</ele>
        <time>2024-02-14T14:36:59Z</time>
      </trkpt>
      <trkpt lat="44.82862" lon="5.06221">
        <ele>553.38</ele>
        <time>2024-02-14T14:37:02Z</time>
      </trkpt>
      <trkpt lat="44.82846" lon="5.06216">
        <ele>550.97</ele>
        <time>2024-02-14T14:37:18Z</time>
      </trkpt>
      <trkpt lat="44.82844" lon="5.06216">
        <ele>550.01</ele>
        <time>2024-02-14T14:37:20Z</time>
      </trkpt>
      <trkpt lat="44.82825" lon="5.06223">
        <ele>548.09</ele>
        <time>2024-02-14T14:37:38Z</time>
      </trkpt>
      <trkpt lat="44.82809" lon="5.06238">
        <ele>546.65</ele>
        <time>2024-02-14T14:37:54Z</time>
      </trkpt>
      <trkpt lat="44.82798" lon="5.06253">
        <ele>544.72</ele>
        <time>2024-02-14T14:38:08Z</time>
      </trkpt>
      <trkpt lat="44.8279" lon="5.06261">
        <ele>543.76</ele>
        <time>2024-02-14T14:38:18Z</time>
      </trkpt>
      <trkpt lat="44.82777" lon="5.06275">
        <ele>540.88</ele>
        <time>2024-02-14T14:38:34Z</time>
      </trkpt>
      <trkpt lat="44.82761" lon="5.06293">
        <ele>537.99</ele>
        <time>2024-02-14T14:38:52Z</time>
      </trkpt>
      <trkpt lat="44.8275" lon="5.06308">
        <ele>537.03</ele>
        <time>2024-02-14T14:39:05Z</time>
      </trkpt>
      <trkpt lat="44.8274" lon="5.06325">
        <ele>535.59</ele>
        <time>2024-02-14T14:39:20Z</time>
      </trkpt>
      <trkpt lat="44.82728" lon="5.0633">
        <ele>534.63</ele>
        <time>2024-02-14T14:39:33Z</time>
      </trkpt>
      <trkpt lat="44.82726" lon="5.06328">
        <ele>534.63</ele>
        <time>2024-02-14T14:39:35Z</time>
      </trkpt>
      <trkpt lat="44.8272" lon="5.06309">
        <ele>534.15</ele>
        <time>2024-02-14T14:39:50Z</time>
      </trkpt>
      <trkpt lat="44.8272" lon="5.06307">
        <ele>534.15</ele>
        <time>2024-02-14T14:39:51Z</time>
      </trkpt>
      <trkpt lat="44.82717" lon="5.06282">
        <ele>534.15</ele>
        <time>2024-02-14T14:40:07Z</time>
      </trkpt>
      <trkpt lat="44.82712" lon="5.06261">
        <ele>534.63</ele>
        <time>2024-02-14T14:40:20Z</time>
      </trkpt>
      <trkpt lat="44.8271" lon="5.06254">
        <ele>534.63</ele>
        <time>2024-02-14T14:40:25Z</time>
      </trkpt>
      <trkpt lat="44.82704" lon="5.06227">
        <ele>535.59</ele>
        <time>2024-02-14T14:40:40Z</time>
      </trkpt>
      <trkpt lat="44.827" lon="5.06203">
        <ele>535.59</ele>
        <time>2024-02-14T14:40:54Z</time>
      </trkpt>
      <trkpt lat="44.82698" lon="5.0618">
        <ele>536.07</ele>
        <time>2024-02-14T14:41:10Z</time>
      </trkpt>
      <trkpt lat="44.82698" lon="5.06175">
        <ele>536.55</ele>
        <time>2024-02-14T14:41:14Z</time>
      </trkpt>
      <trkpt lat="44.82701" lon="5.06145">
        <ele>537.51</ele>
        <time>2024-02-14T14:41:31Z</time>
      </trkpt>
      <trkpt lat="44.82701" lon="5.06116">
        <ele>537.99</ele>
        <time>2024-02-14T14:41:46Z</time>
      </trkpt>
      <trkpt lat="44.82701" lon="5.06097">
        <ele>536.55</ele>
        <time>2024-02-14T14:41:59Z</time>
      </trkpt>
      <trkpt lat="44.82701" lon="5.06086">
        <ele>536.55</ele>
        <time>2024-02-14T14:42:12Z</time>
      </trkpt>
      <trkpt lat="44.82702" lon="5.06069">
        <ele>535.59</ele>
        <time>2024-02-14T14:42:33Z</time>
      </trkpt>
      <trkpt lat="44.82705" lon="5.06043">
        <ele>534.15</ele>
        <time>2024-02-14T14:42:51Z</time>
      </trkpt>
      <trkpt lat="44.82704" lon="5.06019">
        <ele>533.67</ele>
        <time>2024-02-14T14:43:05Z</time>
      </trkpt>
      <trkpt lat="44.82702" lon="5.06012">
        <ele>532.71</ele>
        <time>2024-02-14T14:43:20Z</time>
      </trkpt>
      <trkpt lat="44.82701" lon="5.06006">
        <ele>532.23</ele>
        <time>2024-02-14T14:43:33Z</time>
      </trkpt>
      <trkpt lat="44.82696" lon="5.05998">
        <ele>531.75</ele>
        <time>2024-02-14T14:43:47Z</time>
      </trkpt>
      <trkpt lat="44.82693" lon="5.05993">
        <ele>530.79</ele>
        <time>2024-02-14T14:43:53Z</time>
      </trkpt>
      <trkpt lat="44.82687" lon="5.05981">
        <ele>528.38</ele>
        <time>2024-02-14T14:44:06Z</time>
      </trkpt>
      <trkpt lat="44.82682" lon="5.05972">
        <ele>526.46</ele>
        <time>2024-02-14T14:44:15Z</time>
      </trkpt>
      <trkpt lat="44.82676" lon="5.05956">
        <ele>523.58</ele>
        <time>2024-02-14T14:44:29Z</time>
      </trkpt>
      <trkpt lat="44.82669" lon="5.05941">
        <ele>520.21</ele>
        <time>2024-02-14T14:44:42Z</time>
      </trkpt>
      <trkpt lat="44.82671" lon="5.05921">
        <ele>517.33</ele>
        <time>2024-02-14T14:44:56Z</time>
      </trkpt>
      <trkpt lat="44.82673" lon="5.05905">
        <ele>514.92</ele>
        <time>2024-02-14T14:45:11Z</time>
      </trkpt>
      <trkpt lat="44.82675" lon="5.05892">
        <ele>512.04</ele>
        <time>2024-02-14T14:45:23Z</time>
      </trkpt>
      <trkpt lat="44.82677" lon="5.05877">
        <ele>509.64</ele>
        <time>2024-02-14T14:45:36Z</time>
      </trkpt>
      <trkpt lat="44.82681" lon="5.05862">
        <ele>506.75</ele>
        <time>2024-02-14T14:45:50Z</time>
      </trkpt>
      <trkpt lat="44.82682" lon="5.05861">
        <ele>506.75</ele>
        <time>2024-02-14T14:45:51Z</time>
      </trkpt>
      <trkpt lat="44.82686" lon="5.05848">
        <ele>502.91</ele>
        <time>2024-02-14T14:46:07Z</time>
      </trkpt>
      <trkpt lat="44.82686" lon="5.05835">
        <ele>500.02</ele>
        <time>2024-02-14T14:46:23Z</time>
      </trkpt>
      <trkpt lat="44.82686" lon="5.0582">
        <ele>497.62</ele>
        <time>2024-02-14T14:46:39Z</time>
      </trkpt>
      <trkpt lat="44.82686" lon="5.05805">
        <ele>495.22</ele>
        <time>2024-02-14T14:46:53Z</time>
      </trkpt>
      <trkpt lat="44.82686" lon="5.05788">
        <ele>492.33</ele>
        <time>2024-02-14T14:47:06Z</time>
      </trkpt>
      <trkpt lat="44.82686" lon="5.05785">
        <ele>491.85</ele>
        <time>2024-02-14T14:47:09Z</time>
      </trkpt>
      <trkpt lat="44.82686" lon="5.05768">
        <ele>488.97</ele>
        <time>2024-02-14T14:47:22Z</time>
      </trkpt>
      <trkpt lat="44.82686" lon="5.0575">
        <ele>486.56</ele>
        <time>2024-02-14T14:47:36Z</time>
      </trkpt>
      <trkpt lat="44.82686" lon="5.05729">
        <ele>484.16</ele>
        <time>2024-02-14T14:47:51Z</time>
      </trkpt>
      <trkpt lat="44.82687" lon="5.0571">
        <ele>482.24</ele>
        <time>2024-02-14T14:48:04Z</time>
      </trkpt>
      <trkpt lat="44.82687" lon="5.05702">
        <ele>481.28</ele>
        <time>2024-02-14T14:48:10Z</time>
      </trkpt>
      <trkpt lat="44.82686" lon="5.0568">
        <ele>478.39</ele>
        <time>2024-02-14T14:48:25Z</time>
      </trkpt>
      <trkpt lat="44.82685" lon="5.05675">
        <ele>477.91</ele>
        <time>2024-02-14T14:48:28Z</time>
      </trkpt>
      <trkpt lat="44.82683" lon="5.05654">
        <ele>476.47</ele>
        <time>2024-02-14T14:48:42Z</time>
      </trkpt>
      <trkpt lat="44.82682" lon="5.05631">
        <ele>474.07</ele>
        <time>2024-02-14T14:48:57Z</time>
      </trkpt>
      <trkpt lat="44.82683" lon="5.05623">
        <ele>473.11</ele>
        <time>2024-02-14T14:49:04Z</time>
      </trkpt>
      <trkpt lat="44.82681" lon="5.05606">
        <ele>470.22</ele>
        <time>2024-02-14T14:49:20Z</time>
      </trkpt>
      <trkpt lat="44.82677" lon="5.05601">
        <ele>468.78</ele>
        <time>2024-02-14T14:49:42Z</time>
      </trkpt>
      <trkpt lat="44.82677" lon="5.05594">
        <ele>467.34</ele>
        <time>2024-02-14T14:49:57Z</time>
      </trkpt>
      <trkpt lat="44.8267" lon="5.05582">
        <ele>463.97</ele>
        <time>2024-02-14T14:50:11Z</time>
      </trkpt>
      <trkpt lat="44.82662" lon="5.05572">
        <ele>461.57</ele>
        <time>2024-02-14T14:50:26Z</time>
      </trkpt>
      <trkpt lat="44.8266" lon="5.05569">
        <ele>460.61</ele>
        <time>2024-02-14T14:50:30Z</time>
      </trkpt>
      <trkpt lat="44.82656" lon="5.05566">
        <ele>460.13</ele>
        <time>2024-02-14T14:50:34Z</time>
      </trkpt>
      <trkpt lat="44.82651" lon="5.05563">
        <ele>458.21</ele>
        <time>2024-02-14T14:50:40Z</time>
      </trkpt>
      <trkpt lat="44.82639" lon="5.05563">
        <ele>456.28</ele>
        <time>2024-02-14T14:50:59Z</time>
      </trkpt>
      <trkpt lat="44.82639" lon="5.0556">
        <ele>455.32</ele>
        <time>2024-02-14T14:51:17Z</time>
      </trkpt>
      <trkpt lat="44.82636" lon="5.05553">
        <ele>453.88</ele>
        <time>2024-02-14T14:51:32Z</time>
      </trkpt>
      <trkpt lat="44.82632" lon="5.05548">
        <ele>452.92</ele>
        <time>2024-02-14T14:51:38Z</time>
      </trkpt>
      <trkpt lat="44.82626" lon="5.05524">
        <ele>450.03</ele>
        <time>2024-02-14T14:51:55Z</time>
      </trkpt>
      <trkpt lat="44.82619" lon="5.05494">
        <ele>448.11</ele>
        <time>2024-02-14T14:52:14Z</time>
      </trkpt>
      <trkpt lat="44.82618" lon="5.05493">
        <ele>448.11</ele>
        <time>2024-02-14T14:52:15Z</time>
      </trkpt>
      <trkpt lat="44.82602" lon="5.05472">
        <ele>445.23</ele>
        <time>2024-02-14T14:52:32Z</time>
      </trkpt>
      <trkpt lat="44.82594" lon="5.05439">
        <ele>442.34</ele>
        <time>2024-02-14T14:52:53Z</time>
      </trkpt>
      <trkpt lat="44.82592" lon="5.0541">
        <ele>438.98</ele>
        <time>2024-02-14T14:53:10Z</time>
      </trkpt>
      <trkpt lat="44.82592" lon="5.05405">
        <ele>438.5</ele>
        <time>2024-02-14T14:53:13Z</time>
      </trkpt>
      <trkpt lat="44.82593" lon="5.05401">
        <ele>438.02</ele>
        <time>2024-02-14T14:53:16Z</time>
      </trkpt>
      <trkpt lat="44.82592" lon="5.05384">
        <ele>434.65</ele>
        <time>2024-02-14T14:53:27Z</time>
      </trkpt>
      <trkpt lat="44.82598" lon="5.05358">
        <ele>431.29</ele>
        <time>2024-02-14T14:53:43Z</time>
      </trkpt>
      <trkpt lat="44.82602" lon="5.05352">
        <ele>429.85</ele>
        <time>2024-02-14T14:53:49Z</time>
      </trkpt>
      <trkpt lat="44.82616" lon="5.05336">
        <ele>426</ele>
        <time>2024-02-14T14:54:04Z</time>
      </trkpt>
      <trkpt lat="44.82634" lon="5.05317">
        <ele>423.6</ele>
        <time>2024-02-14T14:54:21Z</time>
      </trkpt>
      <trkpt lat="44.82639" lon="5.05296">
        <ele>422.64</ele>
        <time>2024-02-14T14:54:33Z</time>
      </trkpt>
      <trkpt lat="44.82648" lon="5.05268">
        <ele>421.19</ele>
        <time>2024-02-14T14:54:49Z</time>
      </trkpt>
      <trkpt lat="44.82646" lon="5.05242">
        <ele>420.23</ele>
        <time>2024-02-14T14:55:05Z</time>
      </trkpt>
      <trkpt lat="44.82645" lon="5.05238">
        <ele>419.75</ele>
        <time>2024-02-14T14:55:20Z</time>
      </trkpt>
      <trkpt lat="44.82644" lon="5.05225">
        <ele>419.27</ele>
        <time>2024-02-14T14:55:34Z</time>
      </trkpt>
      <trkpt lat="44.82642" lon="5.05201">
        <ele>418.31</ele>
        <time>2024-02-14T14:55:49Z</time>
      </trkpt>
      <trkpt lat="44.82636" lon="5.05169">
        <ele>417.83</ele>
        <time>2024-02-14T14:56:08Z</time>
      </trkpt>
      <trkpt lat="44.82622" lon="5.05141">
        <ele>417.35</ele>
        <time>2024-02-14T14:56:27Z</time>
      </trkpt>
      <trkpt lat="44.82613" lon="5.05118">
        <ele>417.35</ele>
        <time>2024-02-14T14:56:44Z</time>
      </trkpt>
      <trkpt lat="44.82597" lon="5.05093">
        <ele>417.35</ele>
        <time>2024-02-14T14:57:02Z</time>
      </trkpt>
      <trkpt lat="44.82583" lon="5.05074">
        <ele>417.35</ele>
        <time>2024-02-14T14:57:19Z</time>
      </trkpt>
      <trkpt lat="44.82566" lon="5.05055">
        <ele>416.87</ele>
        <time>2024-02-14T14:57:37Z</time>
      </trkpt>
      <trkpt lat="44.82548" lon="5.05031">
        <ele>414.95</ele>
        <time>2024-02-14T14:57:58Z</time>
      </trkpt>
      <trkpt lat="44.82543" lon="5.05021">
        <ele>413.02</ele>
        <time>2024-02-14T14:58:15Z</time>
      </trkpt>
      <trkpt lat="44.82547" lon="5.05019">
        <ele>412.54</ele>
        <time>2024-02-14T14:58:28Z</time>
      </trkpt>
      <trkpt lat="44.82549" lon="5.05016">
        <ele>412.54</ele>
        <time>2024-02-14T14:58:32Z</time>
      </trkpt>
      <trkpt lat="44.82556" lon="5.04998">
        <ele>410.62</ele>
        <time>2024-02-14T14:58:45Z</time>
      </trkpt>
      <trkpt lat="44.82566" lon="5.04983">
        <ele>407.26</ele>
        <time>2024-02-14T14:58:58Z</time>
      </trkpt>
      <trkpt lat="44.82579" lon="5.04969">
        <ele>403.89</ele>
        <time>2024-02-14T14:59:12Z</time>
      </trkpt>
      <trkpt lat="44.82581" lon="5.04966">
        <ele>403.89</ele>
        <time>2024-02-14T14:59:15Z</time>
      </trkpt>
      <trkpt lat="44.82584" lon="5.04944">
        <ele>400.53</ele>
        <time>2024-02-14T15:01:04Z</time>
      </trkpt>
      <trkpt lat="44.8259" lon="5.0491">
        <ele>397.16</ele>
        <time>2024-02-14T15:01:22Z</time>
      </trkpt>
      <trkpt lat="44.82597" lon="5.04885">
        <ele>393.8</ele>
        <time>2024-02-14T15:01:36Z</time>
      </trkpt>
      <trkpt lat="44.826" lon="5.04866">
        <ele>392.84</ele>
        <time>2024-02-14T15:01:50Z</time>
      </trkpt>
      <trkpt lat="44.82601" lon="5.04864">
        <ele>392.84</ele>
        <time>2024-02-14T15:01:51Z</time>
      </trkpt>
      <trkpt lat="44.82612" lon="5.04836">
        <ele>391.39</ele>
        <time>2024-02-14T15:02:10Z</time>
      </trkpt>
      <trkpt lat="44.82621" lon="5.04814">
        <ele>390.43</ele>
        <time>2024-02-14T15:02:25Z</time>
      </trkpt>
      <trkpt lat="44.8263" lon="5.04789">
        <ele>389.47</ele>
        <time>2024-02-14T15:02:41Z</time>
      </trkpt>
      <trkpt lat="44.82633" lon="5.04764">
        <ele>388.03</ele>
        <time>2024-02-14T15:02:57Z</time>
      </trkpt>
      <trkpt lat="44.82635" lon="5.04753">
        <ele>388.03</ele>
        <time>2024-02-14T15:03:04Z</time>
      </trkpt>
      <trkpt lat="44.82636" lon="5.04746">
        <ele>389.47</ele>
        <time>2024-02-14T15:03:09Z</time>
      </trkpt>
      <trkpt lat="44.82634" lon="5.04719">
        <ele>390.91</ele>
        <time>2024-02-14T15:03:25Z</time>
      </trkpt>
      <trkpt lat="44.82632" lon="5.04697">
        <ele>391.87</ele>
        <time>2024-02-14T15:03:39Z</time>
      </trkpt>
      <trkpt lat="44.82631" lon="5.04676">
        <ele>392.84</ele>
        <time>2024-02-14T15:03:52Z</time>
      </trkpt>
      <trkpt lat="44.82628" lon="5.04656">
        <ele>394.76</ele>
        <time>2024-02-14T15:04:06Z</time>
      </trkpt>
      <trkpt lat="44.8262" lon="5.04641">
        <ele>396.68</ele>
        <time>2024-02-14T15:04:19Z</time>
      </trkpt>
      <trkpt lat="44.82612" lon="5.04629">
        <ele>397.64</ele>
        <time>2024-02-14T15:04:33Z</time>
      </trkpt>
      <trkpt lat="44.82598" lon="5.0461">
        <ele>398.6</ele>
        <time>2024-02-14T15:04:49Z</time>
      </trkpt>
      <trkpt lat="44.82588" lon="5.04595">
        <ele>399.57</ele>
        <time>2024-02-14T15:05:04Z</time>
      </trkpt>
      <trkpt lat="44.8257" lon="5.04581">
        <ele>398.6</ele>
        <time>2024-02-14T15:05:22Z</time>
      </trkpt>
      <trkpt lat="44.82551" lon="5.04573">
        <ele>395.72</ele>
        <time>2024-02-14T15:05:40Z</time>
      </trkpt>
      <trkpt lat="44.82542" lon="5.04549">
        <ele>392.84</ele>
        <time>2024-02-14T15:05:56Z</time>
      </trkpt>
      <trkpt lat="44.82546" lon="5.04519">
        <ele>390.91</ele>
        <time>2024-02-14T15:06:14Z</time>
      </trkpt>
      <trkpt lat="44.82548" lon="5.04484">
        <ele>389.95</ele>
        <time>2024-02-14T15:06:33Z</time>
      </trkpt>
      <trkpt lat="44.82543" lon="5.04457">
        <ele>389.95</ele>
        <time>2024-02-14T15:06:49Z</time>
      </trkpt>
      <trkpt lat="44.82542" lon="5.04449">
        <ele>389.47</ele>
        <time>2024-02-14T15:07:03Z</time>
      </trkpt>
      <trkpt lat="44.82541" lon="5.04444">
        <ele>389.95</ele>
        <time>2024-02-14T15:07:08Z</time>
      </trkpt>
      <trkpt lat="44.82529" lon="5.0442">
        <ele>392.36</ele>
        <time>2024-02-14T15:07:26Z</time>
      </trkpt>
      <trkpt lat="44.82516" lon="5.04404">
        <ele>393.8</ele>
        <time>2024-02-14T15:07:42Z</time>
      </trkpt>
      <trkpt lat="44.82505" lon="5.04395">
        <ele>394.76</ele>
        <time>2024-02-14T15:07:54Z</time>
      </trkpt>
      <trkpt lat="44.82489" lon="5.04382">
        <ele>395.24</ele>
        <time>2024-02-14T15:08:10Z</time>
      </trkpt>
      <trkpt lat="44.82473" lon="5.04379">
        <ele>395.72</ele>
        <time>2024-02-14T15:08:50Z</time>
      </trkpt>
      <trkpt lat="44.82463" lon="5.04378">
        <ele>394.28</ele>
        <time>2024-02-14T15:09:05Z</time>
      </trkpt>
      <trkpt lat="44.82459" lon="5.04364">
        <ele>392.36</ele>
        <time>2024-02-14T15:11:13Z</time>
      </trkpt>
      <trkpt lat="44.82454" lon="5.04364">
        <ele>391.39</ele>
        <time>2024-02-14T15:11:26Z</time>
      </trkpt>
      <trkpt lat="44.8245" lon="5.04363">
        <ele>391.39</ele>
        <time>2024-02-14T15:11:29Z</time>
      </trkpt>
      <trkpt lat="44.82425" lon="5.04369">
        <ele>391.39</ele>
        <time>2024-02-14T15:11:48Z</time>
      </trkpt>
      <trkpt lat="44.82404" lon="5.04376">
        <ele>393.32</ele>
        <time>2024-02-14T15:12:05Z</time>
      </trkpt>
      <trkpt lat="44.82381" lon="5.04381">
        <ele>393.8</ele>
        <time>2024-02-14T15:12:23Z</time>
      </trkpt>
      <trkpt lat="44.82373" lon="5.0438">
        <ele>394.76</ele>
        <time>2024-02-14T15:12:38Z</time>
      </trkpt>
      <trkpt lat="44.82369" lon="5.04383">
        <ele>394.76</ele>
        <time>2024-02-14T15:13:08Z</time>
      </trkpt>
      <trkpt lat="44.82351" lon="5.04388">
        <ele>394.76</ele>
        <time>2024-02-14T15:13:26Z</time>
      </trkpt>
      <trkpt lat="44.8235" lon="5.04387">
        <ele>394.76</ele>
        <time>2024-02-14T15:15:00Z</time>
      </trkpt>
      <trkpt lat="44.82344" lon="5.04384">
        <ele>394.76</ele>
        <time>2024-02-14T15:15:21Z</time>
      </trkpt>
      <trkpt lat="44.82344" lon="5.04382">
        <ele>394.76</ele>
        <time>2024-02-14T15:15:37Z</time>
      </trkpt>
      <trkpt lat="44.82343" lon="5.04379">
        <ele>393.32</ele>
        <time>2024-02-14T15:15:51Z</time>
      </trkpt>
      <trkpt lat="44.82339" lon="5.04378">
        <ele>392.84</ele>
        <time>2024-02-14T15:16:03Z</time>
      </trkpt>
      <trkpt lat="44.8233" lon="5.04372">
        <ele>392.84</ele>
        <time>2024-02-14T15:16:17Z</time>
      </trkpt>
      <trkpt lat="44.82328" lon="5.04365">
        <ele>394.28</ele>
        <time>2024-02-14T15:16:31Z</time>
      </trkpt>
      <trkpt lat="44.82329" lon="5.04363">
        <ele>394.28</ele>
        <time>2024-02-14T15:16:37Z</time>
      </trkpt>
      <trkpt lat="44.82332" lon="5.04354">
        <ele>394.76</ele>
        <time>2024-02-14T15:16:44Z</time>
      </trkpt>
      <trkpt lat="44.82332" lon="5.04351">
        <ele>394.76</ele>
        <time>2024-02-14T15:16:46Z</time>
      </trkpt>
      <trkpt lat="44.82329" lon="5.04334">
        <ele>396.2</ele>
        <time>2024-02-14T15:17:01Z</time>
      </trkpt>
      <trkpt lat="44.82318" lon="5.04311">
        <ele>398.12</ele>
        <time>2024-02-14T15:17:18Z</time>
      </trkpt>
      <trkpt lat="44.82317" lon="5.04305">
        <ele>399.08</ele>
        <time>2024-02-14T15:21:31Z</time>
      </trkpt>
      <trkpt lat="44.82315" lon="5.04304">
        <ele>399.08</ele>
        <time>2024-02-14T15:21:43Z</time>
      </trkpt>
      <trkpt lat="44.82315" lon="5.04305">
        <ele>399.08</ele>
        <time>2024-02-14T15:22:01Z</time>
      </trkpt>
      <trkpt lat="44.82317" lon="5.04315">
        <ele>399.08</ele>
        <time>2024-02-14T15:22:13Z</time>
      </trkpt>
      <trkpt lat="44.82316" lon="5.04321">
        <ele>399.08</ele>
        <time>2024-02-14T15:22:19Z</time>
      </trkpt>
      <trkpt lat="44.82314" lon="5.04324">
        <ele>397.16</ele>
        <time>2024-02-14T15:22:22Z</time>
      </trkpt>
      <trkpt lat="44.82307" lon="5.0432">
        <ele>394.28</ele>
        <time>2024-02-14T15:22:36Z</time>
      </trkpt>
      <trkpt lat="44.82299" lon="5.04323">
        <ele>390.91</ele>
        <time>2024-02-14T15:22:50Z</time>
      </trkpt>
      <trkpt lat="44.823" lon="5.04338">
        <ele>391.39</ele>
        <time>2024-02-14T15:23:01Z</time>
      </trkpt>
      <trkpt lat="44.82298" lon="5.04351">
        <ele>393.32</ele>
        <time>2024-02-14T15:23:11Z</time>
      </trkpt>
      <trkpt lat="44.82297" lon="5.0437">
        <ele>393.32</ele>
        <time>2024-02-14T15:23:27Z</time>
      </trkpt>
      <trkpt lat="44.82295" lon="5.04365">
        <ele>393.32</ele>
        <time>2024-02-14T15:23:37Z</time>
      </trkpt>
      <trkpt lat="44.82294" lon="5.0436">
        <ele>392.36</ele>
        <time>2024-02-14T15:23:42Z</time>
      </trkpt>
      <trkpt lat="44.82292" lon="5.04359">
        <ele>390.91</ele>
        <time>2024-02-14T15:23:57Z</time>
      </trkpt>
      <trkpt lat="44.82289" lon="5.04353">
        <ele>390.91</ele>
        <time>2024-02-14T15:24:12Z</time>
      </trkpt>
      <trkpt lat="44.82287" lon="5.0435">
        <ele>390.43</ele>
        <time>2024-02-14T15:24:27Z</time>
      </trkpt>
      <trkpt lat="44.82286" lon="5.04357">
        <ele>390.43</ele>
        <time>2024-02-14T15:24:38Z</time>
      </trkpt>
      <trkpt lat="44.82283" lon="5.04364">
        <ele>389.47</ele>
        <time>2024-02-14T15:24:46Z</time>
      </trkpt>
      <trkpt lat="44.82269" lon="5.04364">
        <ele>386.59</ele>
        <time>2024-02-14T15:25:04Z</time>
      </trkpt>
      <trkpt lat="44.82265" lon="5.04364">
        <ele>386.11</ele>
        <time>2024-02-14T15:25:17Z</time>
      </trkpt>
      <trkpt lat="44.82258" lon="5.04362">
        <ele>384.18</ele>
        <time>2024-02-14T15:25:29Z</time>
      </trkpt>
      <trkpt lat="44.82253" lon="5.04354">
        <ele>383.7</ele>
        <time>2024-02-14T15:25:36Z</time>
      </trkpt>
      <trkpt lat="44.82244" lon="5.04322">
        <ele>381.3</ele>
        <time>2024-02-14T15:25:55Z</time>
      </trkpt>
      <trkpt lat="44.8224" lon="5.04303">
        <ele>378.9</ele>
        <time>2024-02-14T15:26:09Z</time>
      </trkpt>
      <trkpt lat="44.8224" lon="5.04301">
        <ele>378.9</ele>
        <time>2024-02-14T15:26:10Z</time>
      </trkpt>
      <trkpt lat="44.82238" lon="5.04287">
        <ele>376.97</ele>
        <time>2024-02-14T15:26:21Z</time>
      </trkpt>
      <trkpt lat="44.82236" lon="5.04282">
        <ele>376.49</ele>
        <time>2024-02-14T15:26:27Z</time>
      </trkpt>
      <trkpt lat="44.82234" lon="5.04271">
        <ele>374.09</ele>
        <time>2024-02-14T15:26:36Z</time>
      </trkpt>
      <trkpt lat="44.82237" lon="5.04264">
        <ele>372.17</ele>
        <time>2024-02-14T15:26:50Z</time>
      </trkpt>
      <trkpt lat="44.82252" lon="5.04258">
        <ele>372.65</ele>
        <time>2024-02-14T15:32:24Z</time>
      </trkpt>
      <trkpt lat="44.82261" lon="5.0426">
        <ele>372.65</ele>
        <time>2024-02-14T15:32:37Z</time>
      </trkpt>
      <trkpt lat="44.82264" lon="5.04258">
        <ele>372.65</ele>
        <time>2024-02-14T15:32:44Z</time>
      </trkpt>
      <trkpt lat="44.82279" lon="5.04246">
        <ele>373.13</ele>
        <time>2024-02-14T15:33:00Z</time>
      </trkpt>
      <trkpt lat="44.8229" lon="5.0424">
        <ele>371.69</ele>
        <time>2024-02-14T15:33:11Z</time>
      </trkpt>
      <trkpt lat="44.82303" lon="5.04226">
        <ele>369.76</ele>
        <time>2024-02-14T15:33:27Z</time>
      </trkpt>
      <trkpt lat="44.82307" lon="5.04222">
        <ele>368.8</ele>
        <time>2024-02-14T15:33:32Z</time>
      </trkpt>
      <trkpt lat="44.82314" lon="5.04208">
        <ele>364.96</ele>
        <time>2024-02-14T15:33:45Z</time>
      </trkpt>
      <trkpt lat="44.82319" lon="5.04205">
        <ele>364</ele>
        <time>2024-02-14T15:33:51Z</time>
      </trkpt>
      <trkpt lat="44.82336" lon="5.042">
        <ele>360.63</ele>
        <time>2024-02-14T15:34:06Z</time>
      </trkpt>
      <trkpt lat="44.82345" lon="5.04196">
        <ele>358.71</ele>
        <time>2024-02-14T15:34:15Z</time>
      </trkpt>
      <trkpt lat="44.82355" lon="5.04188">
        <ele>357.27</ele>
        <time>2024-02-14T15:34:30Z</time>
      </trkpt>
      <trkpt lat="44.8236" lon="5.04177">
        <ele>354.38</ele>
        <time>2024-02-14T15:34:39Z</time>
      </trkpt>
      <trkpt lat="44.82366" lon="5.04168">
        <ele>352.46</ele>
        <time>2024-02-14T15:34:48Z</time>
      </trkpt>
      <trkpt lat="44.82364" lon="5.04145">
        <ele>349.1</ele>
        <time>2024-02-14T15:35:03Z</time>
      </trkpt>
      <trkpt lat="44.82361" lon="5.04131">
        <ele>347.17</ele>
        <time>2024-02-14T15:35:12Z</time>
      </trkpt>
      <trkpt lat="44.8236" lon="5.04121">
        <ele>345.73</ele>
        <time>2024-02-14T15:35:25Z</time>
      </trkpt>
      <trkpt lat="44.82359" lon="5.04106">
        <ele>343.33</ele>
        <time>2024-02-14T15:35:35Z</time>
      </trkpt>
      <trkpt lat="44.8235" lon="5.04091">
        <ele>339.96</ele>
        <time>2024-02-14T15:35:49Z</time>
      </trkpt>
      <trkpt lat="44.82343" lon="5.04073">
        <ele>337.08</ele>
        <time>2024-02-14T15:36:02Z</time>
      </trkpt>
      <trkpt lat="44.82336" lon="5.04047">
        <ele>333.71</ele>
        <time>2024-02-14T15:36:18Z</time>
      </trkpt>
      <trkpt lat="44.82333" lon="5.04033">
        <ele>332.75</ele>
        <time>2024-02-14T15:36:27Z</time>
      </trkpt>
      <trkpt lat="44.82324" lon="5.04007">
        <ele>329.39</ele>
        <time>2024-02-14T15:36:44Z</time>
      </trkpt>
      <trkpt lat="44.8232" lon="5.03994">
        <ele>327.95</ele>
        <time>2024-02-14T15:36:53Z</time>
      </trkpt>
      <trkpt lat="44.82311" lon="5.03975">
        <ele>326.02</ele>
        <time>2024-02-14T15:37:07Z</time>
      </trkpt>
      <trkpt lat="44.82309" lon="5.0397">
        <ele>325.06</ele>
        <time>2024-02-14T15:37:14Z</time>
      </trkpt>
      <trkpt lat="44.82303" lon="5.03956">
        <ele>324.1</ele>
        <time>2024-02-14T15:37:25Z</time>
      </trkpt>
      <trkpt lat="44.8229" lon="5.03934">
        <ele>322.66</ele>
        <time>2024-02-14T15:37:43Z</time>
      </trkpt>
      <trkpt lat="44.82285" lon="5.03925">
        <ele>322.66</ele>
        <time>2024-02-14T15:37:58Z</time>
      </trkpt>
    </trkseg>
  </trk>
</gpx>